PWSweather.com
Personal Weather Stations
Station Observations
KGAMILLE3
Southwest Baldwin County, Milledgeville, GA 31061

Southwest Baldwin CountyMilledgeville, GA 31061

Lat: 32.9849557, Lon: -83.33361130000003

Elevation: 384

Station Type: Davis Vantage Pro 3

High Low Average
Temperature 35.8°F2.1°C 21.3°F-5.9°C 30.3°F-0.9°C
Dew Point 31.1°F-0.5°C 13.8°F-10.1°C 20.4°F-6.4°C
Winds 7.0 mph 11.3 kmh Calm Calm 2.0 mph NE3.2 kmh NE
Wind Gusts 15.0 mph24.1 kmh -- 6.0 mph9.7 kmh
Humidity 84% 58% 67%
Pressure 30.58 in1035.6 mb 30.32 in1026.8 mb -
Precipitation 0.00 in0.0 mm - -
Hour Temp Dew Point Humidity Winds Wind Gusts Pressure Precip Precip Rate Daily Precip Total
12:00 AM 37.2°F2.9°C 33.1°F0.6°C 85% 2.0 mph NW3.2 kmh NW 7.0 mph11.3 kmh 30.32 in1026.8 mb 0.00 in0.0 mm 0.00 in0.0 mm 0.00 in0.0 mm
12:01 AM 37.2°F2.9°C 33.1°F0.6°C 85% 2.0 mph NW3.2 kmh NW 7.0 mph11.3 kmh 30.31 in1026.4 mb 0.00 in0.0 mm 0.00 in0.0 mm 0.00 in0.0 mm
12:02 AM 37.2°F2.9°C 33.1°F0.6°C 85% 2.0 mph NNW3.2 kmh NNW 7.0 mph11.3 kmh 30.32 in1026.8 mb 0.00 in0.0 mm 0.00 in0.0 mm 0.00 in0.0 mm
12:03 AM 37.1°F2.8°C 32.7°F0.4°C 84% 2.0 mph NNW3.2 kmh NNW 7.0 mph11.3 kmh 30.32 in1026.8 mb 0.00 in0.0 mm 0.00 in0.0 mm 0.00 in0.0 mm
12:04 AM 37.1°F2.8°C 32.7°F0.4°C 84% 2.0 mph NNW3.2 kmh NNW 7.0 mph11.3 kmh 30.31 in1026.4 mb 0.00 in0.0 mm 0.00 in0.0 mm 0.00 in0.0 mm
12:06 AM 37.0°F2.8°C 32.6°F0.3°C 84% 2.0 mph NNW3.2 kmh NNW 7.0 mph11.3 kmh 30.32 in1026.8 mb 0.00 in0.0 mm 0.00 in0.0 mm 0.00 in0.0 mm
12:07 AM 37.0°F2.8°C 32.6°F0.3°C 84% 2.0 mph NNW3.2 kmh NNW 7.0 mph11.3 kmh 30.32 in1026.8 mb 0.00 in0.0 mm 0.00 in0.0 mm 0.00 in0.0 mm
12:08 AM 36.9°F2.7°C 32.5°F0.3°C 84% 3.0 mph NNW4.8 kmh NNW 11.0 mph17.7 kmh 30.31 in1026.4 mb 0.00 in0.0 mm 0.00 in0.0 mm 0.00 in0.0 mm
12:09 AM 36.9°F2.7°C 32.5°F0.3°C 84% 3.0 mph NNW4.8 kmh NNW 11.0 mph17.7 kmh 30.31 in1026.4 mb 0.00 in0.0 mm 0.00 in0.0 mm 0.00 in0.0 mm
12:10 AM 36.8°F2.7°C 32.4°F0.2°C 84% 4.0 mph NNW6.4 kmh NNW 11.0 mph17.7 kmh 30.31 in1026.4 mb 0.00 in0.0 mm 0.00 in0.0 mm 0.00 in0.0 mm
12:11 AM 36.8°F2.7°C 32.4°F0.2°C 84% 4.0 mph NNW6.4 kmh NNW 11.0 mph17.7 kmh 30.31 in1026.4 mb 0.00 in0.0 mm 0.00 in0.0 mm 0.00 in0.0 mm
12:12 AM 36.7°F2.6°C 32.3°F0.2°C 84% 5.0 mph NNW8.0 kmh NNW 11.0 mph17.7 kmh 30.31 in1026.4 mb 0.00 in0.0 mm 0.00 in0.0 mm 0.00 in0.0 mm
12:13 AM 36.7°F2.6°C 32.3°F0.2°C 84% 5.0 mph NNW8.0 kmh NNW 11.0 mph17.7 kmh 30.31 in1026.4 mb 0.00 in0.0 mm 0.00 in0.0 mm 0.00 in0.0 mm
12:15 AM 36.6°F2.6°C 32.2°F0.1°C 84% 5.0 mph NNW8.0 kmh NNW 11.0 mph17.7 kmh 30.31 in1026.4 mb 0.00 in0.0 mm 0.00 in0.0 mm 0.00 in0.0 mm
12:16 AM 36.5°F2.5°C 32.1°F0.1°C 84% 5.0 mph NNW8.0 kmh NNW 11.0 mph17.7 kmh 30.31 in1026.4 mb 0.00 in0.0 mm 0.00 in0.0 mm 0.00 in0.0 mm
12:17 AM 36.5°F2.5°C 32.1°F0.1°C 84% 5.0 mph NNW8.0 kmh NNW 11.0 mph17.7 kmh 30.31 in1026.4 mb 0.00 in0.0 mm 0.00 in0.0 mm 0.00 in0.0 mm
12:21 AM 36.3°F2.4°C 31.9°F-0.1°C 84% 4.0 mph NNW6.4 kmh NNW 9.0 mph14.5 kmh 30.31 in1026.4 mb 0.00 in0.0 mm 0.00 in0.0 mm 0.00 in0.0 mm
12:23 AM 36.2°F2.3°C 31.8°F-0.1°C 84% 3.0 mph NNW4.8 kmh NNW 9.0 mph14.5 kmh 30.31 in1026.4 mb 0.00 in0.0 mm 0.00 in0.0 mm 0.00 in0.0 mm
05:51 AM 35.8°F2.1°C 31.1°F-0.5°C 83% 2.0 mph NW3.2 kmh NW 8.0 mph12.9 kmh 30.32 in1026.8 mb 0.00 in0.0 mm 0.00 in0.0 mm 0.00 in0.0 mm
05:52 AM 34.0°F1.1°C 26.9°F-2.8°C 75% 3.0 mph NNE4.8 kmh NNE 9.0 mph14.5 kmh 30.35 in1027.8 mb 0.00 in0.0 mm 0.00 in0.0 mm 0.00 in0.0 mm
05:54 AM 32.8°F0.4°C 24.4°F-4.2°C 71% 4.0 mph NNE6.4 kmh NNE 6.0 mph9.7 kmh 30.37 in1028.4 mb 0.00 in0.0 mm 0.00 in0.0 mm 0.00 in0.0 mm
05:55 AM 32.8°F0.4°C 24.4°F-4.2°C 71% 4.0 mph NNE6.4 kmh NNE 6.0 mph9.7 kmh 30.37 in1028.4 mb 0.00 in0.0 mm 0.00 in0.0 mm 0.00 in0.0 mm
05:56 AM 32.8°F0.4°C 24.4°F-4.2°C 71% 4.0 mph NNE6.4 kmh NNE 6.0 mph9.7 kmh 30.37 in1028.4 mb 0.00 in0.0 mm 0.00 in0.0 mm 0.00 in0.0 mm
05:57 AM 32.8°F0.4°C 24.4°F-4.2°C 71% 4.0 mph NNE6.4 kmh NNE 6.0 mph9.7 kmh 30.37 in1028.4 mb 0.00 in0.0 mm 0.00 in0.0 mm 0.00 in0.0 mm
05:58 AM 32.7°F0.4°C 24.0°F-4.4°C 70% 3.0 mph NNE4.8 kmh NNE 9.0 mph14.5 kmh 30.37 in1028.4 mb 0.00 in0.0 mm 0.00 in0.0 mm 0.00 in0.0 mm
05:59 AM 32.7°F0.4°C 24.0°F-4.4°C 70% 3.0 mph NNE4.8 kmh NNE 10.0 mph16.1 kmh 30.37 in1028.4 mb 0.00 in0.0 mm 0.00 in0.0 mm 0.00 in0.0 mm
06:02 AM 32.6°F0.3°C 23.9°F-4.5°C 70% 3.0 mph NNE4.8 kmh NNE 10.0 mph16.1 kmh 30.38 in1028.8 mb 0.00 in0.0 mm 0.00 in0.0 mm 0.00 in0.0 mm
06:03 AM 32.6°F0.3°C 23.9°F-4.5°C 70% 3.0 mph NNE4.8 kmh NNE 10.0 mph16.1 kmh 30.37 in1028.4 mb 0.00 in0.0 mm 0.00 in0.0 mm 0.00 in0.0 mm
06:04 AM 32.6°F0.3°C 23.9°F-4.5°C 70% 3.0 mph NNE4.8 kmh NNE 10.0 mph16.1 kmh 30.38 in1028.8 mb 0.00 in0.0 mm 0.00 in0.0 mm 0.00 in0.0 mm
06:05 AM 32.6°F0.3°C 23.9°F-4.5°C 70% 3.0 mph NNE4.8 kmh NNE 10.0 mph16.1 kmh 30.37 in1028.4 mb 0.00 in0.0 mm 0.00 in0.0 mm 0.00 in0.0 mm
06:06 AM 32.6°F0.3°C 23.9°F-4.5°C 70% 3.0 mph NNE4.8 kmh NNE 10.0 mph16.1 kmh 30.37 in1028.4 mb 0.00 in0.0 mm 0.00 in0.0 mm 0.00 in0.0 mm
06:07 AM 32.6°F0.3°C 23.9°F-4.5°C 70% 3.0 mph NNE4.8 kmh NNE 10.0 mph16.1 kmh 30.37 in1028.4 mb 0.00 in0.0 mm 0.00 in0.0 mm 0.00 in0.0 mm
06:09 AM 32.5°F0.3°C 23.8°F-4.6°C 70% 3.0 mph NNE4.8 kmh NNE 8.0 mph12.9 kmh 30.38 in1028.8 mb 0.00 in0.0 mm 0.00 in0.0 mm 0.00 in0.0 mm
06:16 AM 32.4°F0.2°C 23.7°F-4.6°C 70% 4.0 mph NNE6.4 kmh NNE 10.0 mph16.1 kmh 30.38 in1028.8 mb 0.00 in0.0 mm 0.00 in0.0 mm 0.00 in0.0 mm
06:21 AM 32.3°F0.2°C 23.6°F-4.7°C 70% 4.0 mph NNE6.4 kmh NNE 10.0 mph16.1 kmh 30.38 in1028.8 mb 0.00 in0.0 mm 0.00 in0.0 mm 0.00 in0.0 mm
06:22 AM 32.3°F0.2°C 23.6°F-4.7°C 70% 4.0 mph NNE6.4 kmh NNE 9.0 mph14.5 kmh 30.38 in1028.8 mb 0.00 in0.0 mm 0.00 in0.0 mm 0.00 in0.0 mm
06:23 AM 32.3°F0.2°C 23.6°F-4.7°C 70% 4.0 mph NNE6.4 kmh NNE 9.0 mph14.5 kmh 30.38 in1028.8 mb 0.00 in0.0 mm 0.00 in0.0 mm 0.00 in0.0 mm
06:27 AM 32.2°F0.1°C 23.5°F-4.7°C 70% 2.0 mph NNE3.2 kmh NNE 7.0 mph11.3 kmh 30.38 in1028.8 mb 0.00 in0.0 mm 0.00 in0.0 mm 0.00 in0.0 mm
06:28 AM 32.2°F0.1°C 23.5°F-4.7°C 70% 1.0 mph NNE1.6 kmh NNE 8.0 mph12.9 kmh 30.38 in1028.8 mb 0.00 in0.0 mm 0.00 in0.0 mm 0.00 in0.0 mm
06:32 AM 32.1°F0.1°C 23.1°F-4.9°C 69% 2.0 mph NE3.2 kmh NE 9.0 mph14.5 kmh 30.38 in1028.8 mb 0.00 in0.0 mm 0.00 in0.0 mm 0.00 in0.0 mm
06:36 AM 32.1°F0.1°C 23.1°F-4.9°C 69% 3.0 mph NNE4.8 kmh NNE 9.0 mph14.5 kmh 30.38 in1028.8 mb 0.00 in0.0 mm 0.00 in0.0 mm 0.00 in0.0 mm
06:39 AM 32.1°F0.1°C 23.1°F-4.9°C 69% 4.0 mph NNE6.4 kmh NNE 8.0 mph12.9 kmh 30.39 in1029.1 mb 0.00 in0.0 mm 0.00 in0.0 mm 0.00 in0.0 mm
06:40 AM 32.1°F0.1°C 23.1°F-4.9°C 69% 3.0 mph NNE4.8 kmh NNE 8.0 mph12.9 kmh 30.39 in1029.1 mb 0.00 in0.0 mm 0.00 in0.0 mm 0.00 in0.0 mm
06:46 AM 32.0°F0.0°C 23.0°F-5.0°C 69% 3.0 mph NNE4.8 kmh NNE 8.0 mph12.9 kmh 30.39 in1029.1 mb 0.00 in0.0 mm 0.00 in0.0 mm 0.00 in0.0 mm
06:49 AM 32.0°F0.0°C 23.0°F-5.0°C 69% 2.0 mph NE3.2 kmh NE 9.0 mph14.5 kmh 30.39 in1029.1 mb 0.00 in0.0 mm 0.00 in0.0 mm 0.00 in0.0 mm
06:50 AM 32.0°F0.0°C 23.0°F-5.0°C 69% 2.0 mph NE3.2 kmh NE 9.0 mph14.5 kmh 30.39 in1029.1 mb 0.00 in0.0 mm 0.00 in0.0 mm 0.00 in0.0 mm
06:51 AM 32.0°F0.0°C 23.0°F-5.0°C 69% 2.0 mph NE3.2 kmh NE 9.0 mph14.5 kmh 30.39 in1029.1 mb 0.00 in0.0 mm 0.00 in0.0 mm 0.00 in0.0 mm
06:52 AM 32.0°F0.0°C 23.0°F-5.0°C 69% 3.0 mph NE4.8 kmh NE 9.0 mph14.5 kmh 30.39 in1029.1 mb 0.00 in0.0 mm 0.00 in0.0 mm 0.00 in0.0 mm
07:00 AM 31.9°F-0.1°C 22.9°F-5.1°C 69% 3.0 mph NE4.8 kmh NE 7.0 mph11.3 kmh 30.39 in1029.1 mb 0.00 in0.0 mm 0.00 in0.0 mm 0.00 in0.0 mm
07:02 AM 31.9°F-0.1°C 22.9°F-5.1°C 69% 2.0 mph NE3.2 kmh NE 7.0 mph11.3 kmh 30.39 in1029.1 mb 0.00 in0.0 mm 0.00 in0.0 mm 0.00 in0.0 mm
07:03 AM 31.9°F-0.1°C 22.9°F-5.1°C 69% 2.0 mph NE3.2 kmh NE 6.0 mph9.7 kmh 30.39 in1029.1 mb 0.00 in0.0 mm 0.00 in0.0 mm 0.00 in0.0 mm
07:04 AM 31.9°F-0.1°C 22.9°F-5.1°C 69% 2.0 mph NE3.2 kmh NE 6.0 mph9.7 kmh 30.39 in1029.1 mb 0.00 in0.0 mm 0.00 in0.0 mm 0.00 in0.0 mm
07:05 AM 31.8°F-0.1°C 22.8°F-5.1°C 69% 2.0 mph NE3.2 kmh NE 6.0 mph9.7 kmh 30.39 in1029.1 mb 0.00 in0.0 mm 0.00 in0.0 mm 0.00 in0.0 mm
07:06 AM 31.8°F-0.1°C 22.8°F-5.1°C 69% 2.0 mph NE3.2 kmh NE 6.0 mph9.7 kmh 30.39 in1029.1 mb 0.00 in0.0 mm 0.00 in0.0 mm 0.00 in0.0 mm
07:07 AM 31.8°F-0.1°C 22.8°F-5.1°C 69% 2.0 mph NE3.2 kmh NE 6.0 mph9.7 kmh 30.40 in1029.5 mb 0.00 in0.0 mm 0.00 in0.0 mm 0.00 in0.0 mm
07:08 AM 31.8°F-0.1°C 22.8°F-5.1°C 69% 1.0 mph NE1.6 kmh NE 6.0 mph9.7 kmh 30.40 in1029.5 mb 0.00 in0.0 mm 0.00 in0.0 mm 0.00 in0.0 mm
07:09 AM 31.8°F-0.1°C 22.8°F-5.1°C 69% 1.0 mph NE1.6 kmh NE 6.0 mph9.7 kmh 30.40 in1029.5 mb 0.00 in0.0 mm 0.00 in0.0 mm 0.00 in0.0 mm
07:10 AM 31.8°F-0.1°C 22.8°F-5.1°C 69% 1.0 mph NE1.6 kmh NE 6.0 mph9.7 kmh 30.40 in1029.5 mb 0.00 in0.0 mm 0.00 in0.0 mm 0.00 in0.0 mm
07:11 AM 31.8°F-0.1°C 22.8°F-5.1°C 69% 1.0 mph NE1.6 kmh NE 6.0 mph9.7 kmh 30.40 in1029.5 mb 0.00 in0.0 mm 0.00 in0.0 mm 0.00 in0.0 mm
07:12 AM 31.8°F-0.1°C 22.8°F-5.1°C 69% 1.0 mph NE1.6 kmh NE 6.0 mph9.7 kmh 30.40 in1029.5 mb 0.00 in0.0 mm 0.00 in0.0 mm 0.00 in0.0 mm
07:14 AM 31.7°F-0.2°C 22.7°F-5.2°C 69% 1.0 mph NE1.6 kmh NE 5.0 mph8.0 kmh 30.40 in1029.5 mb 0.00 in0.0 mm 0.00 in0.0 mm 0.00 in0.0 mm
07:15 AM 31.7°F-0.2°C 22.7°F-5.2°C 69% Calm Calm 4.0 mph6.4 kmh 30.40 in1029.5 mb 0.00 in0.0 mm 0.00 in0.0 mm 0.00 in0.0 mm
07:16 AM 31.7°F-0.2°C 22.7°F-5.2°C 69% Calm Calm 7.0 mph11.3 kmh 30.40 in1029.5 mb 0.00 in0.0 mm 0.00 in0.0 mm 0.00 in0.0 mm
07:17 AM 31.7°F-0.2°C 22.7°F-5.2°C 69% 1.0 mph NNE1.6 kmh NNE 7.0 mph11.3 kmh 30.40 in1029.5 mb 0.00 in0.0 mm 0.00 in0.0 mm 0.00 in0.0 mm
07:21 AM 31.7°F-0.2°C 22.7°F-5.2°C 69% 2.0 mph NNE3.2 kmh NNE 7.0 mph11.3 kmh 30.40 in1029.5 mb 0.00 in0.0 mm 0.00 in0.0 mm 0.00 in0.0 mm
07:27 AM 31.7°F-0.2°C 22.7°F-5.2°C 69% 3.0 mph NNE4.8 kmh NNE 9.0 mph14.5 kmh 30.41 in1029.8 mb 0.00 in0.0 mm 0.00 in0.0 mm 0.00 in0.0 mm
07:28 AM 31.7°F-0.2°C 22.7°F-5.2°C 69% 4.0 mph NNE6.4 kmh NNE 9.0 mph14.5 kmh 30.41 in1029.8 mb 0.00 in0.0 mm 0.00 in0.0 mm 0.00 in0.0 mm
07:35 AM 31.6°F-0.2°C 22.6°F-5.2°C 69% 2.0 mph NNE3.2 kmh NNE 9.0 mph14.5 kmh 30.41 in1029.8 mb 0.00 in0.0 mm 0.00 in0.0 mm 0.00 in0.0 mm
07:36 AM 31.6°F-0.2°C 22.6°F-5.2°C 69% 3.0 mph NNE4.8 kmh NNE 9.0 mph14.5 kmh 30.41 in1029.8 mb 0.00 in0.0 mm 0.00 in0.0 mm 0.00 in0.0 mm
07:37 AM 31.6°F-0.2°C 22.6°F-5.2°C 69% 2.0 mph NNE3.2 kmh NNE 6.0 mph9.7 kmh 30.41 in1029.8 mb 0.00 in0.0 mm 0.00 in0.0 mm 0.00 in0.0 mm
07:40 AM 31.5°F-0.3°C 22.5°F-5.3°C 69% 1.0 mph NNE1.6 kmh NNE 6.0 mph9.7 kmh 30.41 in1029.8 mb 0.00 in0.0 mm 0.00 in0.0 mm 0.00 in0.0 mm
07:42 AM 31.5°F-0.3°C 22.5°F-5.3°C 69% 1.0 mph NNE1.6 kmh NNE 6.0 mph9.7 kmh 30.41 in1029.8 mb 0.00 in0.0 mm 0.00 in0.0 mm 0.00 in0.0 mm
07:44 AM 31.5°F-0.3°C 22.5°F-5.3°C 69% 1.0 mph N1.6 kmh N 6.0 mph9.7 kmh 30.41 in1029.8 mb 0.00 in0.0 mm 0.00 in0.0 mm 0.00 in0.0 mm
07:45 AM 31.5°F-0.3°C 22.5°F-5.3°C 69% 1.0 mph NNE1.6 kmh NNE 6.0 mph9.7 kmh 30.42 in1030.1 mb 0.00 in0.0 mm 0.00 in0.0 mm 0.00 in0.0 mm
07:46 AM 31.5°F-0.3°C 22.5°F-5.3°C 69% 1.0 mph NE1.6 kmh NE 5.0 mph8.0 kmh 30.41 in1029.8 mb 0.00 in0.0 mm 0.00 in0.0 mm 0.00 in0.0 mm
07:47 AM 31.5°F-0.3°C 22.5°F-5.3°C 69% 1.0 mph NE1.6 kmh NE 5.0 mph8.0 kmh 30.42 in1030.1 mb 0.00 in0.0 mm 0.00 in0.0 mm 0.00 in0.0 mm
07:48 AM 31.5°F-0.3°C 22.5°F-5.3°C 69% 1.0 mph NE1.6 kmh NE 5.0 mph8.0 kmh 30.42 in1030.1 mb 0.00 in0.0 mm 0.00 in0.0 mm 0.00 in0.0 mm
07:49 AM 31.5°F-0.3°C 22.5°F-5.3°C 69% 1.0 mph NE1.6 kmh NE 5.0 mph8.0 kmh 30.42 in1030.1 mb 0.00 in0.0 mm 0.00 in0.0 mm 0.00 in0.0 mm
07:53 AM 31.5°F-0.3°C 22.5°F-5.3°C 69% 1.0 mph NE1.6 kmh NE 5.0 mph8.0 kmh 30.42 in1030.1 mb 0.00 in0.0 mm 0.00 in0.0 mm 0.00 in0.0 mm
07:55 AM 31.5°F-0.3°C 22.5°F-5.3°C 69% 1.0 mph NE1.6 kmh NE 5.0 mph8.0 kmh 30.42 in1030.1 mb 0.00 in0.0 mm 0.00 in0.0 mm 0.00 in0.0 mm
07:56 AM 31.5°F-0.3°C 22.5°F-5.3°C 69% 1.0 mph NE1.6 kmh NE 5.0 mph8.0 kmh 30.42 in1030.1 mb 0.00 in0.0 mm 0.00 in0.0 mm 0.00 in0.0 mm
07:57 AM 31.5°F-0.3°C 22.5°F-5.3°C 69% 1.0 mph NE1.6 kmh NE 5.0 mph8.0 kmh 30.42 in1030.1 mb 0.00 in0.0 mm 0.00 in0.0 mm 0.00 in0.0 mm
07:58 AM 31.4°F-0.3°C 22.4°F-5.3°C 69% 1.0 mph NE1.6 kmh NE 5.0 mph8.0 kmh 30.42 in1030.1 mb 0.00 in0.0 mm 0.00 in0.0 mm 0.00 in0.0 mm
07:59 AM 31.4°F-0.3°C 22.4°F-5.3°C 69% 1.0 mph NE1.6 kmh NE 5.0 mph8.0 kmh 30.42 in1030.1 mb 0.00 in0.0 mm 0.00 in0.0 mm 0.00 in0.0 mm
08:01 AM 31.4°F-0.3°C 22.4°F-5.3°C 69% 1.0 mph NNE1.6 kmh NNE 5.0 mph8.0 kmh 30.42 in1030.1 mb 0.00 in0.0 mm 0.00 in0.0 mm 0.00 in0.0 mm
08:02 AM 31.4°F-0.3°C 22.4°F-5.3°C 69% 1.0 mph N1.6 kmh N 7.0 mph11.3 kmh 30.42 in1030.1 mb 0.00 in0.0 mm 0.00 in0.0 mm 0.00 in0.0 mm
08:03 AM 31.4°F-0.3°C 22.7°F-5.2°C 70% 1.0 mph N1.6 kmh N 7.0 mph11.3 kmh 30.42 in1030.1 mb 0.00 in0.0 mm 0.00 in0.0 mm 0.00 in0.0 mm
08:04 AM 31.4°F-0.3°C 22.7°F-5.2°C 70% 1.0 mph N1.6 kmh N 7.0 mph11.3 kmh 30.42 in1030.1 mb 0.00 in0.0 mm 0.00 in0.0 mm 0.00 in0.0 mm
08:05 AM 31.4°F-0.3°C 22.7°F-5.2°C 70% 1.0 mph N1.6 kmh N 7.0 mph11.3 kmh 30.43 in1030.5 mb 0.00 in0.0 mm 0.00 in0.0 mm 0.00 in0.0 mm
08:06 AM 31.4°F-0.3°C 22.7°F-5.2°C 70% 2.0 mph N3.2 kmh N 7.0 mph11.3 kmh 30.43 in1030.5 mb 0.00 in0.0 mm 0.00 in0.0 mm 0.00 in0.0 mm
08:07 AM 31.4°F-0.3°C 22.7°F-5.2°C 70% 2.0 mph N3.2 kmh N 7.0 mph11.3 kmh 30.43 in1030.5 mb 0.00 in0.0 mm 0.00 in0.0 mm 0.00 in0.0 mm
08:08 AM 31.3°F-0.4°C 22.6°F-5.2°C 70% 2.0 mph N3.2 kmh N 7.0 mph11.3 kmh 30.43 in1030.5 mb 0.00 in0.0 mm 0.00 in0.0 mm 0.00 in0.0 mm
08:09 AM 31.3°F-0.4°C 22.6°F-5.2°C 70% 2.0 mph N3.2 kmh N 7.0 mph11.3 kmh 30.43 in1030.5 mb 0.00 in0.0 mm 0.00 in0.0 mm 0.00 in0.0 mm
08:11 AM 31.3°F-0.4°C 22.6°F-5.2°C 70% 2.0 mph N3.2 kmh N 7.0 mph11.3 kmh 30.43 in1030.5 mb 0.00 in0.0 mm 0.00 in0.0 mm 0.00 in0.0 mm
08:12 AM 31.3°F-0.4°C 22.6°F-5.2°C 70% 2.0 mph NNE3.2 kmh NNE 8.0 mph12.9 kmh 30.43 in1030.5 mb 0.00 in0.0 mm 0.00 in0.0 mm 0.00 in0.0 mm
08:13 AM 31.3°F-0.4°C 22.6°F-5.2°C 70% 2.0 mph NE3.2 kmh NE 8.0 mph12.9 kmh 30.43 in1030.5 mb 0.00 in0.0 mm 0.00 in0.0 mm 0.00 in0.0 mm
08:15 AM 31.2°F-0.4°C 22.5°F-5.3°C 70% 1.0 mph NE1.6 kmh NE 8.0 mph12.9 kmh 30.43 in1030.5 mb 0.00 in0.0 mm 0.00 in0.0 mm 0.00 in0.0 mm
08:20 AM 31.2°F-0.4°C 22.5°F-5.3°C 70% 3.0 mph NE4.8 kmh NE 11.0 mph17.7 kmh 30.43 in1030.5 mb 0.00 in0.0 mm 0.00 in0.0 mm 0.00 in0.0 mm
08:26 AM 31.1°F-0.5°C 22.5°F-5.3°C 70% 3.0 mph NE4.8 kmh NE 11.0 mph17.7 kmh 30.44 in1030.8 mb 0.00 in0.0 mm 0.00 in0.0 mm 0.00 in0.0 mm
08:27 AM 31.1°F-0.5°C 22.8°F-5.1°C 71% 3.0 mph NE4.8 kmh NE 11.0 mph17.7 kmh 30.44 in1030.8 mb 0.00 in0.0 mm 0.00 in0.0 mm 0.00 in0.0 mm
08:28 AM 31.1°F-0.5°C 22.8°F-5.1°C 71% 3.0 mph NE4.8 kmh NE 7.0 mph11.3 kmh 30.44 in1030.8 mb 0.00 in0.0 mm 0.00 in0.0 mm 0.00 in0.0 mm
08:33 AM 31.0°F-0.6°C 22.7°F-5.2°C 71% 1.0 mph NE1.6 kmh NE 7.0 mph11.3 kmh 30.44 in1030.8 mb 0.00 in0.0 mm 0.00 in0.0 mm 0.00 in0.0 mm
08:35 AM 31.1°F-0.5°C 22.8°F-5.1°C 71% 1.0 mph NE1.6 kmh NE 7.0 mph11.3 kmh 30.44 in1030.8 mb 0.00 in0.0 mm 0.00 in0.0 mm 0.00 in0.0 mm
08:38 AM 31.1°F-0.5°C 22.8°F-5.1°C 71% 1.0 mph NE1.6 kmh NE 5.0 mph8.0 kmh 30.44 in1030.8 mb 0.00 in0.0 mm 0.00 in0.0 mm 0.00 in0.0 mm
08:40 AM 31.1°F-0.5°C 22.8°F-5.1°C 71% 1.0 mph NE1.6 kmh NE 7.0 mph11.3 kmh 30.44 in1030.8 mb 0.00 in0.0 mm 0.00 in0.0 mm 0.00 in0.0 mm
08:41 AM 31.0°F-0.6°C 22.7°F-5.2°C 71% 1.0 mph NE1.6 kmh NE 7.0 mph11.3 kmh 30.44 in1030.8 mb 0.00 in0.0 mm 0.00 in0.0 mm 0.00 in0.0 mm
08:45 AM 31.0°F-0.6°C 22.7°F-5.2°C 71% 2.0 mph NE3.2 kmh NE 8.0 mph12.9 kmh 30.45 in1031.2 mb 0.00 in0.0 mm 0.00 in0.0 mm 0.00 in0.0 mm
08:47 AM 31.0°F-0.6°C 23.0°F-5.0°C 72% 3.0 mph NE4.8 kmh NE 8.0 mph12.9 kmh 30.45 in1031.2 mb 0.00 in0.0 mm 0.00 in0.0 mm 0.00 in0.0 mm
08:48 AM 31.0°F-0.6°C 23.0°F-5.0°C 72% 3.0 mph NE4.8 kmh NE 8.0 mph12.9 kmh 30.45 in1031.2 mb 0.00 in0.0 mm 0.00 in0.0 mm 0.00 in0.0 mm
08:50 AM 31.0°F-0.6°C 23.0°F-5.0°C 72% 3.0 mph NE4.8 kmh NE 8.0 mph12.9 kmh 30.45 in1031.2 mb 0.00 in0.0 mm 0.00 in0.0 mm 0.00 in0.0 mm
08:51 AM 31.0°F-0.6°C 23.0°F-5.0°C 72% 2.0 mph NE3.2 kmh NE 8.0 mph12.9 kmh 30.45 in1031.2 mb 0.00 in0.0 mm 0.00 in0.0 mm 0.00 in0.0 mm
08:54 AM 31.0°F-0.6°C 23.0°F-5.0°C 72% 1.0 mph NE1.6 kmh NE 7.0 mph11.3 kmh 30.45 in1031.2 mb 0.00 in0.0 mm 0.00 in0.0 mm 0.00 in0.0 mm
08:55 AM 31.0°F-0.6°C 23.0°F-5.0°C 72% 1.0 mph NE1.6 kmh NE 7.0 mph11.3 kmh 30.45 in1031.2 mb 0.00 in0.0 mm 0.00 in0.0 mm 0.00 in0.0 mm
08:58 AM 30.9°F-0.6°C 22.9°F-5.1°C 72% 1.0 mph NE1.6 kmh NE 7.0 mph11.3 kmh 30.45 in1031.2 mb 0.00 in0.0 mm 0.00 in0.0 mm 0.00 in0.0 mm
09:06 AM 30.9°F-0.6°C 23.3°F-4.8°C 73% 1.0 mph NE1.6 kmh NE 5.0 mph8.0 kmh 30.45 in1031.2 mb 0.00 in0.0 mm 0.00 in0.0 mm 0.00 in0.0 mm
09:08 AM 30.9°F-0.6°C 23.3°F-4.8°C 73% 1.0 mph NE1.6 kmh NE 5.0 mph8.0 kmh 30.45 in1031.2 mb 0.00 in0.0 mm 0.00 in0.0 mm 0.00 in0.0 mm
09:09 AM 30.9°F-0.6°C 23.3°F-4.8°C 73% 1.0 mph NE1.6 kmh NE 5.0 mph8.0 kmh 30.45 in1031.2 mb 0.00 in0.0 mm 0.00 in0.0 mm 0.00 in0.0 mm
09:10 AM 30.9°F-0.6°C 23.3°F-4.8°C 73% 1.0 mph NE1.6 kmh NE 5.0 mph8.0 kmh 30.45 in1031.2 mb 0.00 in0.0 mm 0.00 in0.0 mm 0.00 in0.0 mm
09:14 AM 30.9°F-0.6°C 23.3°F-4.8°C 73% 1.0 mph NE1.6 kmh NE 5.0 mph8.0 kmh 30.45 in1031.2 mb 0.00 in0.0 mm 0.00 in0.0 mm 0.00 in0.0 mm
09:15 AM 30.9°F-0.6°C 23.3°F-4.8°C 73% 1.0 mph NE1.6 kmh NE 5.0 mph8.0 kmh 30.45 in1031.2 mb 0.00 in0.0 mm 0.00 in0.0 mm 0.00 in0.0 mm
09:17 AM 30.9°F-0.6°C 23.3°F-4.8°C 73% 1.0 mph NE1.6 kmh NE 5.0 mph8.0 kmh 30.45 in1031.2 mb 0.00 in0.0 mm 0.00 in0.0 mm 0.00 in0.0 mm
09:19 AM 30.9°F-0.6°C 23.3°F-4.8°C 73% 1.0 mph NE1.6 kmh NE 5.0 mph8.0 kmh 30.45 in1031.2 mb 0.00 in0.0 mm 0.00 in0.0 mm 0.00 in0.0 mm
09:21 AM 31.0°F-0.6°C 23.4°F-4.8°C 73% 1.0 mph NE1.6 kmh NE 7.0 mph11.3 kmh 30.45 in1031.2 mb 0.00 in0.0 mm 0.00 in0.0 mm 0.00 in0.0 mm
09:24 AM 31.0°F-0.6°C 23.7°F-4.6°C 74% 1.0 mph NE1.6 kmh NE 7.0 mph11.3 kmh 30.45 in1031.2 mb 0.00 in0.0 mm 0.00 in0.0 mm 0.00 in0.0 mm
09:26 AM 31.0°F-0.6°C 23.7°F-4.6°C 74% 1.0 mph NE1.6 kmh NE 7.0 mph11.3 kmh 30.45 in1031.2 mb 0.00 in0.0 mm 0.00 in0.0 mm 0.00 in0.0 mm
09:27 AM 31.0°F-0.6°C 23.7°F-4.6°C 74% 1.0 mph NE1.6 kmh NE 7.0 mph11.3 kmh 30.45 in1031.2 mb 0.00 in0.0 mm 0.00 in0.0 mm 0.00 in0.0 mm
09:28 AM 31.0°F-0.6°C 23.7°F-4.6°C 74% 1.0 mph NE1.6 kmh NE 7.0 mph11.3 kmh 30.45 in1031.2 mb 0.00 in0.0 mm 0.00 in0.0 mm 0.00 in0.0 mm
09:34 AM 30.9°F-0.6°C 23.6°F-4.7°C 74% 4.0 mph NNE6.4 kmh NNE 10.0 mph16.1 kmh 30.46 in1031.5 mb 0.00 in0.0 mm 0.00 in0.0 mm 0.00 in0.0 mm
09:35 AM 30.9°F-0.6°C 23.6°F-4.7°C 74% 4.0 mph NNE6.4 kmh NNE 10.0 mph16.1 kmh 30.46 in1031.5 mb 0.00 in0.0 mm 0.00 in0.0 mm 0.00 in0.0 mm
09:37 AM 30.9°F-0.6°C 23.6°F-4.7°C 74% 4.0 mph NNE6.4 kmh NNE 10.0 mph16.1 kmh 30.46 in1031.5 mb 0.00 in0.0 mm 0.00 in0.0 mm 0.00 in0.0 mm
09:38 AM 30.9°F-0.6°C 23.6°F-4.7°C 74% 4.0 mph NNE6.4 kmh NNE 10.0 mph16.1 kmh 30.47 in1031.8 mb 0.00 in0.0 mm 0.00 in0.0 mm 0.00 in0.0 mm
09:46 AM 30.8°F-0.7°C 23.5°F-4.7°C 74% 3.0 mph NE4.8 kmh NE 9.0 mph14.5 kmh 30.47 in1031.8 mb 0.00 in0.0 mm 0.00 in0.0 mm 0.00 in0.0 mm
09:49 AM 30.8°F-0.7°C 23.5°F-4.7°C 74% 3.0 mph NE4.8 kmh NE 9.0 mph14.5 kmh 30.48 in1032.2 mb 0.00 in0.0 mm 0.00 in0.0 mm 0.00 in0.0 mm
09:50 AM 30.8°F-0.7°C 23.5°F-4.7°C 74% 3.0 mph NE4.8 kmh NE 9.0 mph14.5 kmh 30.48 in1032.2 mb 0.00 in0.0 mm 0.00 in0.0 mm 0.00 in0.0 mm
09:53 AM 30.8°F-0.7°C 23.8°F-4.6°C 75% 3.0 mph NE4.8 kmh NE 9.0 mph14.5 kmh 30.47 in1031.8 mb 0.00 in0.0 mm 0.00 in0.0 mm 0.00 in0.0 mm
09:57 AM 30.8°F-0.7°C 23.8°F-4.6°C 75% 3.0 mph NE4.8 kmh NE 8.0 mph12.9 kmh 30.47 in1031.8 mb 0.00 in0.0 mm 0.00 in0.0 mm 0.00 in0.0 mm
09:58 AM 30.8°F-0.7°C 23.8°F-4.6°C 75% 3.0 mph NE4.8 kmh NE 8.0 mph12.9 kmh 30.48 in1032.2 mb 0.00 in0.0 mm 0.00 in0.0 mm 0.00 in0.0 mm
09:59 AM 30.8°F-0.7°C 23.8°F-4.6°C 75% 3.0 mph NE4.8 kmh NE 8.0 mph12.9 kmh 30.48 in1032.2 mb 0.00 in0.0 mm 0.00 in0.0 mm 0.00 in0.0 mm
10:00 AM 30.8°F-0.7°C 23.8°F-4.6°C 75% 3.0 mph NE4.8 kmh NE 8.0 mph12.9 kmh 30.48 in1032.2 mb 0.00 in0.0 mm 0.00 in0.0 mm 0.00 in0.0 mm
10:01 AM 30.8°F-0.7°C 23.8°F-4.6°C 75% 3.0 mph NE4.8 kmh NE 8.0 mph12.9 kmh 30.48 in1032.2 mb 0.00 in0.0 mm 0.00 in0.0 mm 0.00 in0.0 mm
10:03 AM 30.9°F-0.6°C 23.9°F-4.5°C 75% 3.0 mph NE4.8 kmh NE 8.0 mph12.9 kmh 30.48 in1032.2 mb 0.00 in0.0 mm 0.00 in0.0 mm 0.00 in0.0 mm
10:04 AM 30.9°F-0.6°C 23.9°F-4.5°C 75% 2.0 mph NE3.2 kmh NE 8.0 mph12.9 kmh 30.48 in1032.2 mb 0.00 in0.0 mm 0.00 in0.0 mm 0.00 in0.0 mm
10:07 AM 30.9°F-0.6°C 23.9°F-4.5°C 75% 3.0 mph NE4.8 kmh NE 8.0 mph12.9 kmh 30.48 in1032.2 mb 0.00 in0.0 mm 0.00 in0.0 mm 0.00 in0.0 mm
10:10 AM 30.9°F-0.6°C 23.9°F-4.5°C 75% 2.0 mph NE3.2 kmh NE 8.0 mph12.9 kmh 30.48 in1032.2 mb 0.00 in0.0 mm 0.00 in0.0 mm 0.00 in0.0 mm
10:12 AM 30.9°F-0.6°C 23.9°F-4.5°C 75% 2.0 mph NE3.2 kmh NE 8.0 mph12.9 kmh 30.48 in1032.2 mb 0.00 in0.0 mm 0.00 in0.0 mm 0.00 in0.0 mm
10:13 AM 31.0°F-0.6°C 24.0°F-4.4°C 75% 2.0 mph NE3.2 kmh NE 8.0 mph12.9 kmh 30.48 in1032.2 mb 0.00 in0.0 mm 0.00 in0.0 mm 0.00 in0.0 mm
10:14 AM 30.9°F-0.6°C 24.2°F-4.3°C 76% 2.0 mph NNE3.2 kmh NNE 8.0 mph12.9 kmh 30.48 in1032.2 mb 0.00 in0.0 mm 0.00 in0.0 mm 0.00 in0.0 mm
10:15 AM 31.0°F-0.6°C 24.0°F-4.4°C 75% 2.0 mph NNE3.2 kmh NNE 8.0 mph12.9 kmh 30.48 in1032.2 mb 0.00 in0.0 mm 0.00 in0.0 mm 0.00 in0.0 mm
10:20 AM 31.0°F-0.6°C 24.3°F-4.3°C 76% 2.0 mph N3.2 kmh N 8.0 mph12.9 kmh 30.48 in1032.2 mb 0.00 in0.0 mm 0.00 in0.0 mm 0.00 in0.0 mm
10:21 AM 31.0°F-0.6°C 24.3°F-4.3°C 76% 3.0 mph NNE4.8 kmh NNE 8.0 mph12.9 kmh 30.49 in1032.5 mb 0.00 in0.0 mm 0.00 in0.0 mm 0.00 in0.0 mm
10:22 AM 31.0°F-0.6°C 24.3°F-4.3°C 76% 3.0 mph NNE4.8 kmh NNE 8.0 mph12.9 kmh 30.49 in1032.5 mb 0.00 in0.0 mm 0.00 in0.0 mm 0.00 in0.0 mm
10:23 AM 31.0°F-0.6°C 24.3°F-4.3°C 76% 3.0 mph NNE4.8 kmh NNE 8.0 mph12.9 kmh 30.49 in1032.5 mb 0.00 in0.0 mm 0.00 in0.0 mm 0.00 in0.0 mm
10:24 AM 31.0°F-0.6°C 24.0°F-4.4°C 75% 3.0 mph NNE4.8 kmh NNE 8.0 mph12.9 kmh 30.49 in1032.5 mb 0.00 in0.0 mm 0.00 in0.0 mm 0.00 in0.0 mm
10:25 AM 31.0°F-0.6°C 24.0°F-4.4°C 75% 3.0 mph NE4.8 kmh NE 8.0 mph12.9 kmh 30.49 in1032.5 mb 0.00 in0.0 mm 0.00 in0.0 mm 0.00 in0.0 mm
10:26 AM 31.0°F-0.6°C 24.0°F-4.4°C 75% 4.0 mph NE6.4 kmh NE 8.0 mph12.9 kmh 30.49 in1032.5 mb 0.00 in0.0 mm 0.00 in0.0 mm 0.00 in0.0 mm
10:27 AM 31.0°F-0.6°C 24.0°F-4.4°C 75% 4.0 mph NE6.4 kmh NE 8.0 mph12.9 kmh 30.49 in1032.5 mb 0.00 in0.0 mm 0.00 in0.0 mm 0.00 in0.0 mm
10:28 AM 31.0°F-0.6°C 24.0°F-4.4°C 75% 5.0 mph NE8.0 kmh NE 8.0 mph12.9 kmh 30.49 in1032.5 mb 0.00 in0.0 mm 0.00 in0.0 mm 0.00 in0.0 mm
10:29 AM 30.9°F-0.6°C 23.9°F-4.5°C 75% 5.0 mph NE8.0 kmh NE 8.0 mph12.9 kmh 30.49 in1032.5 mb 0.00 in0.0 mm 0.00 in0.0 mm 0.00 in0.0 mm
10:30 AM 30.9°F-0.6°C 23.9°F-4.5°C 75% 5.0 mph NE8.0 kmh NE 8.0 mph12.9 kmh 30.50 in1032.8 mb 0.00 in0.0 mm 0.00 in0.0 mm 0.00 in0.0 mm
10:31 AM 30.8°F-0.7°C 23.8°F-4.6°C 75% 5.0 mph NE8.0 kmh NE 9.0 mph14.5 kmh 30.49 in1032.5 mb 0.00 in0.0 mm 0.00 in0.0 mm 0.00 in0.0 mm
10:32 AM 30.8°F-0.7°C 23.8°F-4.6°C 75% 5.0 mph NE8.0 kmh NE 9.0 mph14.5 kmh 30.49 in1032.5 mb 0.00 in0.0 mm 0.00 in0.0 mm 0.00 in0.0 mm
10:33 AM 30.8°F-0.7°C 23.8°F-4.6°C 75% 5.0 mph NE8.0 kmh NE 9.0 mph14.5 kmh 30.50 in1032.8 mb 0.00 in0.0 mm 0.00 in0.0 mm 0.00 in0.0 mm
10:34 AM 30.8°F-0.7°C 23.8°F-4.6°C 75% 5.0 mph NE8.0 kmh NE 10.0 mph16.1 kmh 30.50 in1032.8 mb 0.00 in0.0 mm 0.00 in0.0 mm 0.00 in0.0 mm
10:35 AM 30.8°F-0.7°C 23.8°F-4.6°C 75% 5.0 mph NE8.0 kmh NE 10.0 mph16.1 kmh 30.50 in1032.8 mb 0.00 in0.0 mm 0.00 in0.0 mm 0.00 in0.0 mm
10:42 AM 30.8°F-0.7°C 23.8°F-4.6°C 75% 5.0 mph NE8.0 kmh NE 13.0 mph20.9 kmh 30.49 in1032.5 mb 0.00 in0.0 mm 0.00 in0.0 mm 0.00 in0.0 mm
10:44 AM 30.8°F-0.7°C 23.8°F-4.6°C 75% 5.0 mph NE8.0 kmh NE 13.0 mph20.9 kmh 30.50 in1032.8 mb 0.00 in0.0 mm 0.00 in0.0 mm 0.00 in0.0 mm
10:54 AM 30.9°F-0.6°C 23.6°F-4.7°C 74% 4.0 mph NE6.4 kmh NE 11.0 mph17.7 kmh 30.50 in1032.8 mb 0.00 in0.0 mm 0.00 in0.0 mm 0.00 in0.0 mm
10:57 AM 31.0°F-0.6°C 23.7°F-4.6°C 74% 3.0 mph NE4.8 kmh NE 9.0 mph14.5 kmh 30.51 in1033.2 mb 0.00 in0.0 mm 0.00 in0.0 mm 0.00 in0.0 mm
10:58 AM 31.0°F-0.6°C 23.7°F-4.6°C 74% 3.0 mph NE4.8 kmh NE 9.0 mph14.5 kmh 30.51 in1033.2 mb 0.00 in0.0 mm 0.00 in0.0 mm 0.00 in0.0 mm
10:59 AM 31.0°F-0.6°C 23.7°F-4.6°C 74% 4.0 mph NE6.4 kmh NE 9.0 mph14.5 kmh 30.51 in1033.2 mb 0.00 in0.0 mm 0.00 in0.0 mm 0.00 in0.0 mm
11:00 AM 31.0°F-0.6°C 23.7°F-4.6°C 74% 4.0 mph NE6.4 kmh NE 9.0 mph14.5 kmh 30.51 in1033.2 mb 0.00 in0.0 mm 0.00 in0.0 mm 0.00 in0.0 mm
11:02 AM 31.1°F-0.5°C 23.8°F-4.6°C 74% 3.0 mph NE4.8 kmh NE 9.0 mph14.5 kmh 30.51 in1033.2 mb 0.00 in0.0 mm 0.00 in0.0 mm 0.00 in0.0 mm
11:04 AM 31.1°F-0.5°C 23.8°F-4.6°C 74% 3.0 mph NE4.8 kmh NE 9.0 mph14.5 kmh 30.51 in1033.2 mb 0.00 in0.0 mm 0.00 in0.0 mm 0.00 in0.0 mm
11:05 AM 31.1°F-0.5°C 23.8°F-4.6°C 74% 3.0 mph NE4.8 kmh NE 9.0 mph14.5 kmh 30.51 in1033.2 mb 0.00 in0.0 mm 0.00 in0.0 mm 0.00 in0.0 mm
11:06 AM 31.1°F-0.5°C 23.8°F-4.6°C 74% 3.0 mph NE4.8 kmh NE 10.0 mph16.1 kmh 30.51 in1033.2 mb 0.00 in0.0 mm 0.00 in0.0 mm 0.00 in0.0 mm
11:07 AM 31.1°F-0.5°C 23.8°F-4.6°C 74% 3.0 mph NE4.8 kmh NE 10.0 mph16.1 kmh 30.51 in1033.2 mb 0.00 in0.0 mm 0.00 in0.0 mm 0.00 in0.0 mm
11:10 AM 31.2°F-0.4°C 23.9°F-4.5°C 74% 3.0 mph NE4.8 kmh NE 10.0 mph16.1 kmh 30.52 in1033.5 mb 0.00 in0.0 mm 0.00 in0.0 mm 0.00 in0.0 mm
11:11 AM 31.2°F-0.4°C 23.9°F-4.5°C 74% 3.0 mph NE4.8 kmh NE 10.0 mph16.1 kmh 30.52 in1033.5 mb 0.00 in0.0 mm 0.00 in0.0 mm 0.00 in0.0 mm
11:12 AM 31.2°F-0.4°C 23.5°F-4.7°C 73% 3.0 mph NE4.8 kmh NE 10.0 mph16.1 kmh 30.52 in1033.5 mb 0.00 in0.0 mm 0.00 in0.0 mm 0.00 in0.0 mm
11:14 AM 31.2°F-0.4°C 23.5°F-4.7°C 73% 4.0 mph NE6.4 kmh NE 10.0 mph16.1 kmh 30.52 in1033.5 mb 0.00 in0.0 mm 0.00 in0.0 mm 0.00 in0.0 mm
11:17 AM 31.2°F-0.4°C 23.5°F-4.7°C 73% 4.0 mph NE6.4 kmh NE 10.0 mph16.1 kmh 30.52 in1033.5 mb 0.00 in0.0 mm 0.00 in0.0 mm 0.00 in0.0 mm
11:19 AM 31.2°F-0.4°C 23.5°F-4.7°C 73% 4.0 mph NE6.4 kmh NE 10.0 mph16.1 kmh 30.52 in1033.5 mb 0.00 in0.0 mm 0.00 in0.0 mm 0.00 in0.0 mm
11:20 AM 31.2°F-0.4°C 23.5°F-4.7°C 73% 4.0 mph NE6.4 kmh NE 10.0 mph16.1 kmh 30.52 in1033.5 mb 0.00 in0.0 mm 0.00 in0.0 mm 0.00 in0.0 mm
11:21 AM 31.3°F-0.4°C 23.6°F-4.7°C 73% 4.0 mph NNE6.4 kmh NNE 10.0 mph16.1 kmh 30.52 in1033.5 mb 0.00 in0.0 mm 0.00 in0.0 mm 0.00 in0.0 mm
11:23 AM 31.2°F-0.4°C 23.2°F-4.9°C 72% 5.0 mph NNE8.0 kmh NNE 10.0 mph16.1 kmh 30.52 in1033.5 mb 0.00 in0.0 mm 0.00 in0.0 mm 0.00 in0.0 mm
11:24 AM 31.2°F-0.4°C 23.2°F-4.9°C 72% 5.0 mph NNE8.0 kmh NNE 12.0 mph19.3 kmh 30.52 in1033.5 mb 0.00 in0.0 mm 0.00 in0.0 mm 0.00 in0.0 mm
11:25 AM 31.2°F-0.4°C 23.2°F-4.9°C 72% 5.0 mph NNE8.0 kmh NNE 12.0 mph19.3 kmh 30.52 in1033.5 mb 0.00 in0.0 mm 0.00 in0.0 mm 0.00 in0.0 mm
11:26 AM 31.2°F-0.4°C 23.2°F-4.9°C 72% 5.0 mph NNE8.0 kmh NNE 13.0 mph20.9 kmh 30.52 in1033.5 mb 0.00 in0.0 mm 0.00 in0.0 mm 0.00 in0.0 mm
11:27 AM 31.2°F-0.4°C 23.2°F-4.9°C 72% 6.0 mph NNE9.7 kmh NNE 13.0 mph20.9 kmh 30.52 in1033.5 mb 0.00 in0.0 mm 0.00 in0.0 mm 0.00 in0.0 mm
11:29 AM 31.2°F-0.4°C 22.9°F-5.1°C 71% 6.0 mph NNE9.7 kmh NNE 13.0 mph20.9 kmh 30.52 in1033.5 mb 0.00 in0.0 mm 0.00 in0.0 mm 0.00 in0.0 mm
11:30 AM 31.2°F-0.4°C 22.9°F-5.1°C 71% 6.0 mph NNE9.7 kmh NNE 13.0 mph20.9 kmh 30.52 in1033.5 mb 0.00 in0.0 mm 0.00 in0.0 mm 0.00 in0.0 mm
11:31 AM 31.2°F-0.4°C 22.9°F-5.1°C 71% 6.0 mph NNE9.7 kmh NNE 13.0 mph20.9 kmh 30.52 in1033.5 mb 0.00 in0.0 mm 0.00 in0.0 mm 0.00 in0.0 mm
11:32 AM 31.2°F-0.4°C 22.9°F-5.1°C 71% 6.0 mph NNE9.7 kmh NNE 13.0 mph20.9 kmh 30.52 in1033.5 mb 0.00 in0.0 mm 0.00 in0.0 mm 0.00 in0.0 mm
11:33 AM 31.2°F-0.4°C 22.9°F-5.1°C 71% 6.0 mph NNE9.7 kmh NNE 13.0 mph20.9 kmh 30.52 in1033.5 mb 0.00 in0.0 mm 0.00 in0.0 mm 0.00 in0.0 mm
11:34 AM 31.2°F-0.4°C 22.9°F-5.1°C 71% 5.0 mph NNE8.0 kmh NNE 13.0 mph20.9 kmh 30.52 in1033.5 mb 0.00 in0.0 mm 0.00 in0.0 mm 0.00 in0.0 mm
11:35 AM 31.2°F-0.4°C 22.9°F-5.1°C 71% 5.0 mph NNE8.0 kmh NNE 13.0 mph20.9 kmh 30.52 in1033.5 mb 0.00 in0.0 mm 0.00 in0.0 mm 0.00 in0.0 mm
11:36 AM 31.2°F-0.4°C 22.9°F-5.1°C 71% 5.0 mph NNE8.0 kmh NNE 11.0 mph17.7 kmh 30.52 in1033.5 mb 0.00 in0.0 mm 0.00 in0.0 mm 0.00 in0.0 mm
11:37 AM 31.2°F-0.4°C 22.9°F-5.1°C 71% 5.0 mph NNE8.0 kmh NNE 11.0 mph17.7 kmh 30.52 in1033.5 mb 0.00 in0.0 mm 0.00 in0.0 mm 0.00 in0.0 mm
11:40 AM 31.3°F-0.4°C 23.0°F-5.0°C 71% 4.0 mph NE6.4 kmh NE 8.0 mph12.9 kmh 30.52 in1033.5 mb 0.00 in0.0 mm 0.00 in0.0 mm 0.00 in0.0 mm
11:41 AM 31.4°F-0.3°C 23.1°F-4.9°C 71% 4.0 mph NE6.4 kmh NE 8.0 mph12.9 kmh 30.52 in1033.5 mb 0.00 in0.0 mm 0.00 in0.0 mm 0.00 in0.0 mm
11:42 AM 31.4°F-0.3°C 22.7°F-5.2°C 70% 4.0 mph NNE6.4 kmh NNE 8.0 mph12.9 kmh 30.52 in1033.5 mb 0.00 in0.0 mm 0.00 in0.0 mm 0.00 in0.0 mm
11:43 AM 31.4°F-0.3°C 22.7°F-5.2°C 70% 4.0 mph NE6.4 kmh NE 9.0 mph14.5 kmh 30.52 in1033.5 mb 0.00 in0.0 mm 0.00 in0.0 mm 0.00 in0.0 mm
11:45 AM 31.4°F-0.3°C 22.7°F-5.2°C 70% 4.0 mph NE6.4 kmh NE 9.0 mph14.5 kmh 30.52 in1033.5 mb 0.00 in0.0 mm 0.00 in0.0 mm 0.00 in0.0 mm
11:46 AM 31.5°F-0.3°C 22.8°F-5.1°C 70% 4.0 mph NE6.4 kmh NE 9.0 mph14.5 kmh 30.52 in1033.5 mb 0.00 in0.0 mm 0.00 in0.0 mm 0.00 in0.0 mm
11:47 AM 31.5°F-0.3°C 22.8°F-5.1°C 70% 4.0 mph NE6.4 kmh NE 9.0 mph14.5 kmh 30.52 in1033.5 mb 0.00 in0.0 mm 0.00 in0.0 mm 0.00 in0.0 mm
11:48 AM 31.5°F-0.3°C 22.8°F-5.1°C 70% 4.0 mph NE6.4 kmh NE 11.0 mph17.7 kmh 30.52 in1033.5 mb 0.00 in0.0 mm 0.00 in0.0 mm 0.00 in0.0 mm
11:50 AM 31.6°F-0.2°C 22.9°F-5.1°C 70% 4.0 mph NE6.4 kmh NE 11.0 mph17.7 kmh 30.52 in1033.5 mb 0.00 in0.0 mm 0.00 in0.0 mm 0.00 in0.0 mm
11:52 AM 31.6°F-0.2°C 22.6°F-5.2°C 69% 5.0 mph NE8.0 kmh NE 11.0 mph17.7 kmh 30.52 in1033.5 mb 0.00 in0.0 mm 0.00 in0.0 mm 0.00 in0.0 mm
11:53 AM 31.5°F-0.3°C 22.5°F-5.3°C 69% 5.0 mph NE8.0 kmh NE 11.0 mph17.7 kmh 30.52 in1033.5 mb 0.00 in0.0 mm 0.00 in0.0 mm 0.00 in0.0 mm
11:54 AM 31.5°F-0.3°C 22.5°F-5.3°C 69% 5.0 mph NE8.0 kmh NE 11.0 mph17.7 kmh 30.52 in1033.5 mb 0.00 in0.0 mm 0.00 in0.0 mm 0.00 in0.0 mm
11:55 AM 31.5°F-0.3°C 22.5°F-5.3°C 69% 5.0 mph NE8.0 kmh NE 11.0 mph17.7 kmh 30.52 in1033.5 mb 0.00 in0.0 mm 0.00 in0.0 mm 0.00 in0.0 mm
11:56 AM 31.5°F-0.3°C 22.5°F-5.3°C 69% 5.0 mph NE8.0 kmh NE 11.0 mph17.7 kmh 30.52 in1033.5 mb 0.00 in0.0 mm 0.00 in0.0 mm 0.00 in0.0 mm
11:57 AM 31.5°F-0.3°C 22.5°F-5.3°C 69% 5.0 mph NE8.0 kmh NE 11.0 mph17.7 kmh 30.52 in1033.5 mb 0.00 in0.0 mm 0.00 in0.0 mm 0.00 in0.0 mm
11:58 AM 31.5°F-0.3°C 22.5°F-5.3°C 69% 5.0 mph NE8.0 kmh NE 9.0 mph14.5 kmh 30.52 in1033.5 mb 0.00 in0.0 mm 0.00 in0.0 mm 0.00 in0.0 mm
12:02 PM 31.5°F-0.3°C 22.1°F-5.5°C 68% 4.0 mph NE6.4 kmh NE 9.0 mph14.5 kmh 30.52 in1033.5 mb 0.00 in0.0 mm 0.00 in0.0 mm 0.00 in0.0 mm
12:03 PM 31.4°F-0.3°C 22.1°F-5.5°C 68% 4.0 mph NE6.4 kmh NE 9.0 mph14.5 kmh 30.52 in1033.5 mb 0.00 in0.0 mm 0.00 in0.0 mm 0.00 in0.0 mm
12:05 PM 31.5°F-0.3°C 22.1°F-5.5°C 68% 3.0 mph NE4.8 kmh NE 9.0 mph14.5 kmh 30.52 in1033.5 mb 0.00 in0.0 mm 0.00 in0.0 mm 0.00 in0.0 mm
12:06 PM 31.5°F-0.3°C 22.1°F-5.5°C 68% 3.0 mph NNE4.8 kmh NNE 9.0 mph14.5 kmh 30.52 in1033.5 mb 0.00 in0.0 mm 0.00 in0.0 mm 0.00 in0.0 mm
12:12 PM 31.7°F-0.2°C 22.3°F-5.4°C 68% 2.0 mph N3.2 kmh N 11.0 mph17.7 kmh 30.52 in1033.5 mb 0.00 in0.0 mm 0.00 in0.0 mm 0.00 in0.0 mm
12:14 PM 31.7°F-0.2°C 22.0°F-5.6°C 67% 3.0 mph NNE4.8 kmh NNE 14.0 mph22.5 kmh 30.52 in1033.5 mb 0.00 in0.0 mm 0.00 in0.0 mm 0.00 in0.0 mm
12:15 PM 31.7°F-0.2°C 22.0°F-5.6°C 67% 4.0 mph NNE6.4 kmh NNE 14.0 mph22.5 kmh 30.52 in1033.5 mb 0.00 in0.0 mm 0.00 in0.0 mm 0.00 in0.0 mm
12:16 PM 31.7°F-0.2°C 22.0°F-5.6°C 67% 4.0 mph NNE6.4 kmh NNE 14.0 mph22.5 kmh 30.52 in1033.5 mb 0.00 in0.0 mm 0.00 in0.0 mm 0.00 in0.0 mm
12:17 PM 31.7°F-0.2°C 22.0°F-5.6°C 67% 4.0 mph NNE6.4 kmh NNE 14.0 mph22.5 kmh 30.52 in1033.5 mb 0.00 in0.0 mm 0.00 in0.0 mm 0.00 in0.0 mm
12:20 PM 31.7°F-0.2°C 22.0°F-5.6°C 67% 6.0 mph N9.7 kmh N 14.0 mph22.5 kmh 30.52 in1033.5 mb 0.00 in0.0 mm 0.00 in0.0 mm 0.00 in0.0 mm
12:31 PM 32.0°F0.0°C 22.3°F-5.4°C 67% 4.0 mph N6.4 kmh N 12.0 mph19.3 kmh 30.52 in1033.5 mb 0.00 in0.0 mm 0.00 in0.0 mm 0.00 in0.0 mm
12:35 PM 32.3°F0.2°C 22.6°F-5.2°C 67% 3.0 mph NE4.8 kmh NE 11.0 mph17.7 kmh 30.52 in1033.5 mb 0.00 in0.0 mm 0.00 in0.0 mm 0.00 in0.0 mm
12:36 PM 32.3°F0.2°C 22.6°F-5.2°C 67% 3.0 mph NE4.8 kmh NE 12.0 mph19.3 kmh 30.52 in1033.5 mb 0.00 in0.0 mm 0.00 in0.0 mm 0.00 in0.0 mm
12:37 PM 32.3°F0.2°C 22.6°F-5.2°C 67% 3.0 mph NE4.8 kmh NE 12.0 mph19.3 kmh 30.52 in1033.5 mb 0.00 in0.0 mm 0.00 in0.0 mm 0.00 in0.0 mm
12:38 PM 32.4°F0.2°C 22.7°F-5.2°C 67% 4.0 mph NE6.4 kmh NE 12.0 mph19.3 kmh 30.52 in1033.5 mb 0.00 in0.0 mm 0.00 in0.0 mm 0.00 in0.0 mm
12:39 PM 32.3°F0.2°C 22.2°F-5.4°C 66% 4.0 mph NE6.4 kmh NE 12.0 mph19.3 kmh 30.51 in1033.2 mb 0.00 in0.0 mm 0.00 in0.0 mm 0.00 in0.0 mm
12:41 PM 32.3°F0.2°C 22.2°F-5.4°C 66% 5.0 mph NE8.0 kmh NE 12.0 mph19.3 kmh 30.52 in1033.5 mb 0.00 in0.0 mm 0.00 in0.0 mm 0.00 in0.0 mm
12:44 PM 32.4°F0.2°C 22.3°F-5.4°C 66% 5.0 mph NE8.0 kmh NE 12.0 mph19.3 kmh 30.51 in1033.2 mb 0.00 in0.0 mm 0.00 in0.0 mm 0.00 in0.0 mm
12:47 PM 32.5°F0.3°C 22.4°F-5.3°C 66% 5.0 mph NE8.0 kmh NE 15.0 mph24.1 kmh 30.51 in1033.2 mb 0.00 in0.0 mm 0.00 in0.0 mm 0.00 in0.0 mm
12:48 PM 32.5°F0.3°C 22.4°F-5.3°C 66% 5.0 mph NE8.0 kmh NE 15.0 mph24.1 kmh 30.51 in1033.2 mb 0.00 in0.0 mm 0.00 in0.0 mm 0.00 in0.0 mm
12:49 PM 32.4°F0.2°C 22.3°F-5.4°C 66% 5.0 mph NE8.0 kmh NE 15.0 mph24.1 kmh 30.51 in1033.2 mb 0.00 in0.0 mm 0.00 in0.0 mm 0.00 in0.0 mm
12:51 PM 32.4°F0.2°C 22.3°F-5.4°C 66% 5.0 mph NE8.0 kmh NE 15.0 mph24.1 kmh 30.51 in1033.2 mb 0.00 in0.0 mm 0.00 in0.0 mm 0.00 in0.0 mm
12:56 PM 32.3°F0.2°C 21.8°F-5.7°C 65% 7.0 mph NE11.3 kmh NE 12.0 mph19.3 kmh 30.51 in1033.2 mb 0.00 in0.0 mm 0.00 in0.0 mm 0.00 in0.0 mm
12:57 PM 32.2°F0.1°C 21.7°F-5.7°C 65% 6.0 mph NE9.7 kmh NE 12.0 mph19.3 kmh 30.51 in1033.2 mb 0.00 in0.0 mm 0.00 in0.0 mm 0.00 in0.0 mm
12:58 PM 32.2°F0.1°C 21.7°F-5.7°C 65% 6.0 mph NE9.7 kmh NE 11.0 mph17.7 kmh 30.51 in1033.2 mb 0.00 in0.0 mm 0.00 in0.0 mm 0.00 in0.0 mm
01:00 PM 32.1°F0.1°C 21.7°F-5.7°C 65% 6.0 mph NE9.7 kmh NE 11.0 mph17.7 kmh 30.51 in1033.2 mb 0.00 in0.0 mm 0.00 in0.0 mm 0.00 in0.0 mm
01:03 PM 32.2°F0.1°C 21.7°F-5.7°C 65% 6.0 mph NE9.7 kmh NE 11.0 mph17.7 kmh 30.51 in1033.2 mb 0.00 in0.0 mm 0.00 in0.0 mm 0.00 in0.0 mm
01:04 PM 32.2°F0.1°C 21.7°F-5.7°C 65% 6.0 mph NE9.7 kmh NE 10.0 mph16.1 kmh 30.50 in1032.8 mb 0.00 in0.0 mm 0.00 in0.0 mm 0.00 in0.0 mm
01:07 PM 32.4°F0.2°C 21.9°F-5.6°C 65% 5.0 mph NE8.0 kmh NE 10.0 mph16.1 kmh 30.50 in1032.8 mb 0.00 in0.0 mm 0.00 in0.0 mm 0.00 in0.0 mm
01:08 PM 32.4°F0.2°C 21.9°F-5.6°C 65% 5.0 mph NE8.0 kmh NE 10.0 mph16.1 kmh 30.50 in1032.8 mb 0.00 in0.0 mm 0.00 in0.0 mm 0.00 in0.0 mm
01:10 PM 32.4°F0.2°C 21.9°F-5.6°C 65% 4.0 mph NE6.4 kmh NE 8.0 mph12.9 kmh 30.50 in1032.8 mb 0.00 in0.0 mm 0.00 in0.0 mm 0.00 in0.0 mm
01:14 PM 32.6°F0.3°C 21.8°F-5.7°C 64% 4.0 mph NE6.4 kmh NE 11.0 mph17.7 kmh 30.50 in1032.8 mb 0.00 in0.0 mm 0.00 in0.0 mm 0.00 in0.0 mm
01:15 PM 32.6°F0.3°C 21.8°F-5.7°C 64% 4.0 mph NE6.4 kmh NE 11.0 mph17.7 kmh 30.50 in1032.8 mb 0.00 in0.0 mm 0.00 in0.0 mm 0.00 in0.0 mm
01:16 PM 32.6°F0.3°C 21.8°F-5.7°C 64% 4.0 mph NE6.4 kmh NE 11.0 mph17.7 kmh 30.50 in1032.8 mb 0.00 in0.0 mm 0.00 in0.0 mm 0.00 in0.0 mm
01:17 PM 32.7°F0.4°C 21.9°F-5.6°C 64% 5.0 mph NE8.0 kmh NE 11.0 mph17.7 kmh 30.50 in1032.8 mb 0.00 in0.0 mm 0.00 in0.0 mm 0.00 in0.0 mm
01:19 PM 32.7°F0.4°C 21.9°F-5.6°C 64% 5.0 mph NE8.0 kmh NE 11.0 mph17.7 kmh 30.50 in1032.8 mb 0.00 in0.0 mm 0.00 in0.0 mm 0.00 in0.0 mm
01:20 PM 32.7°F0.4°C 21.9°F-5.6°C 64% 5.0 mph NE8.0 kmh NE 11.0 mph17.7 kmh 30.50 in1032.8 mb 0.00 in0.0 mm 0.00 in0.0 mm 0.00 in0.0 mm
01:21 PM 32.7°F0.4°C 21.9°F-5.6°C 64% 5.0 mph NE8.0 kmh NE 11.0 mph17.7 kmh 30.50 in1032.8 mb 0.00 in0.0 mm 0.00 in0.0 mm 0.00 in0.0 mm
01:22 PM 32.8°F0.4°C 22.0°F-5.6°C 64% 5.0 mph NE8.0 kmh NE 11.0 mph17.7 kmh 30.50 in1032.8 mb 0.00 in0.0 mm 0.00 in0.0 mm 0.00 in0.0 mm
01:23 PM 32.8°F0.4°C 22.0°F-5.6°C 64% 5.0 mph NE8.0 kmh NE 10.0 mph16.1 kmh 30.50 in1032.8 mb 0.00 in0.0 mm 0.00 in0.0 mm 0.00 in0.0 mm
01:26 PM 32.9°F0.5°C 22.0°F-5.6°C 64% 4.0 mph NE6.4 kmh NE 9.0 mph14.5 kmh 30.49 in1032.5 mb 0.00 in0.0 mm 0.00 in0.0 mm 0.00 in0.0 mm
01:27 PM 32.9°F0.5°C 22.0°F-5.6°C 64% 4.0 mph NNE6.4 kmh NNE 9.0 mph14.5 kmh 30.49 in1032.5 mb 0.00 in0.0 mm 0.00 in0.0 mm 0.00 in0.0 mm
01:28 PM 32.9°F0.5°C 22.0°F-5.6°C 64% 4.0 mph NNE6.4 kmh NNE 9.0 mph14.5 kmh 30.49 in1032.5 mb 0.00 in0.0 mm 0.00 in0.0 mm 0.00 in0.0 mm
01:39 PM 33.1°F0.6°C 21.9°F-5.6°C 63% 3.0 mph NE4.8 kmh NE 13.0 mph20.9 kmh 30.49 in1032.5 mb 0.00 in0.0 mm 0.00 in0.0 mm 0.00 in0.0 mm
01:46 PM 33.2°F0.7°C 22.0°F-5.6°C 63% 3.0 mph NNE4.8 kmh NNE 10.0 mph16.1 kmh 30.49 in1032.5 mb 0.00 in0.0 mm 0.00 in0.0 mm 0.00 in0.0 mm
01:47 PM 33.2°F0.7°C 22.0°F-5.6°C 63% 3.0 mph NNE4.8 kmh NNE 10.0 mph16.1 kmh 30.48 in1032.2 mb 0.00 in0.0 mm 0.00 in0.0 mm 0.00 in0.0 mm
01:48 PM 33.3°F0.7°C 22.1°F-5.5°C 63% 3.0 mph N4.8 kmh N 10.0 mph16.1 kmh 30.48 in1032.2 mb 0.00 in0.0 mm 0.00 in0.0 mm 0.00 in0.0 mm
01:51 PM 33.3°F0.7°C 22.1°F-5.5°C 63% 4.0 mph N6.4 kmh N 10.0 mph16.1 kmh 30.49 in1032.5 mb 0.00 in0.0 mm 0.00 in0.0 mm 0.00 in0.0 mm
01:52 PM 33.3°F0.7°C 22.1°F-5.5°C 63% 4.0 mph N6.4 kmh N 10.0 mph16.1 kmh 30.48 in1032.2 mb 0.00 in0.0 mm 0.00 in0.0 mm 0.00 in0.0 mm
01:53 PM 33.2°F0.7°C 22.0°F-5.6°C 63% 3.0 mph N4.8 kmh N 10.0 mph16.1 kmh 30.48 in1032.2 mb 0.00 in0.0 mm 0.00 in0.0 mm 0.00 in0.0 mm
01:54 PM 33.2°F0.7°C 22.0°F-5.6°C 63% 3.0 mph N4.8 kmh N 10.0 mph16.1 kmh 30.49 in1032.5 mb 0.00 in0.0 mm 0.00 in0.0 mm 0.00 in0.0 mm
01:55 PM 33.2°F0.7°C 22.0°F-5.6°C 63% 4.0 mph N6.4 kmh N 10.0 mph16.1 kmh 30.49 in1032.5 mb 0.00 in0.0 mm 0.00 in0.0 mm 0.00 in0.0 mm
01:56 PM 33.2°F0.7°C 22.0°F-5.6°C 63% 4.0 mph N6.4 kmh N 10.0 mph16.1 kmh 30.49 in1032.5 mb 0.00 in0.0 mm 0.00 in0.0 mm 0.00 in0.0 mm
01:57 PM 33.2°F0.7°C 22.0°F-5.6°C 63% 4.0 mph N6.4 kmh N 10.0 mph16.1 kmh 30.49 in1032.5 mb 0.00 in0.0 mm 0.00 in0.0 mm 0.00 in0.0 mm
01:58 PM 33.2°F0.7°C 22.0°F-5.6°C 63% 3.0 mph NNE4.8 kmh NNE 10.0 mph16.1 kmh 30.49 in1032.5 mb 0.00 in0.0 mm 0.00 in0.0 mm 0.00 in0.0 mm
01:59 PM 33.2°F0.7°C 22.0°F-5.6°C 63% 3.0 mph NNE4.8 kmh NNE 10.0 mph16.1 kmh 30.49 in1032.5 mb 0.00 in0.0 mm 0.00 in0.0 mm 0.00 in0.0 mm
02:05 PM 33.3°F0.7°C 22.1°F-5.5°C 63% 4.0 mph NE6.4 kmh NE 9.0 mph14.5 kmh 30.48 in1032.2 mb 0.00 in0.0 mm 0.00 in0.0 mm 0.00 in0.0 mm
02:08 PM 33.4°F0.8°C 22.1°F-5.5°C 63% 3.0 mph NE4.8 kmh NE 9.0 mph14.5 kmh 30.48 in1032.2 mb 0.00 in0.0 mm 0.00 in0.0 mm 0.00 in0.0 mm
02:13 PM 33.7°F0.9°C 22.4°F-5.3°C 63% 3.0 mph NNE4.8 kmh NNE 10.0 mph16.1 kmh 30.48 in1032.2 mb 0.00 in0.0 mm 0.00 in0.0 mm 0.00 in0.0 mm
02:14 PM 33.7°F0.9°C 22.4°F-5.3°C 63% 3.0 mph NNE4.8 kmh NNE 10.0 mph16.1 kmh 30.48 in1032.2 mb 0.00 in0.0 mm 0.00 in0.0 mm 0.00 in0.0 mm
02:15 PM 33.7°F0.9°C 22.4°F-5.3°C 63% 3.0 mph N4.8 kmh N 10.0 mph16.1 kmh 30.48 in1032.2 mb 0.00 in0.0 mm 0.00 in0.0 mm 0.00 in0.0 mm
02:18 PM 33.7°F0.9°C 22.4°F-5.3°C 63% 3.0 mph NNE4.8 kmh NNE 10.0 mph16.1 kmh 30.48 in1032.2 mb 0.00 in0.0 mm 0.00 in0.0 mm 0.00 in0.0 mm
02:19 PM 33.6°F0.9°C 22.3°F-5.4°C 63% 3.0 mph N4.8 kmh N 10.0 mph16.1 kmh 30.48 in1032.2 mb 0.00 in0.0 mm 0.00 in0.0 mm 0.00 in0.0 mm
02:20 PM 33.6°F0.9°C 22.3°F-5.4°C 63% 4.0 mph N6.4 kmh N 10.0 mph16.1 kmh 30.47 in1031.8 mb 0.00 in0.0 mm 0.00 in0.0 mm 0.00 in0.0 mm
02:22 PM 33.5°F0.8°C 22.2°F-5.4°C 63% 4.0 mph N6.4 kmh N 10.0 mph16.1 kmh 30.48 in1032.2 mb 0.00 in0.0 mm 0.00 in0.0 mm 0.00 in0.0 mm
02:23 PM 33.5°F0.8°C 22.2°F-5.4°C 63% 4.0 mph N6.4 kmh N 10.0 mph16.1 kmh 30.48 in1032.2 mb 0.00 in0.0 mm 0.00 in0.0 mm 0.00 in0.0 mm
02:25 PM 33.5°F0.8°C 22.2°F-5.4°C 63% 4.0 mph N6.4 kmh N 10.0 mph16.1 kmh 30.48 in1032.2 mb 0.00 in0.0 mm 0.00 in0.0 mm 0.00 in0.0 mm
02:26 PM 33.4°F0.8°C 22.1°F-5.5°C 63% 4.0 mph N6.4 kmh N 10.0 mph16.1 kmh 30.48 in1032.2 mb 0.00 in0.0 mm 0.00 in0.0 mm 0.00 in0.0 mm
02:27 PM 33.4°F0.8°C 22.1°F-5.5°C 63% 4.0 mph N6.4 kmh N 10.0 mph16.1 kmh 30.48 in1032.2 mb 0.00 in0.0 mm 0.00 in0.0 mm 0.00 in0.0 mm
02:28 PM 33.4°F0.8°C 22.1°F-5.5°C 63% 4.0 mph N6.4 kmh N 10.0 mph16.1 kmh 30.48 in1032.2 mb 0.00 in0.0 mm 0.00 in0.0 mm 0.00 in0.0 mm
02:29 PM 33.4°F0.8°C 22.1°F-5.5°C 63% 4.0 mph N6.4 kmh N 9.0 mph14.5 kmh 30.48 in1032.2 mb 0.00 in0.0 mm 0.00 in0.0 mm 0.00 in0.0 mm
02:31 PM 33.4°F0.8°C 22.1°F-5.5°C 63% 4.0 mph N6.4 kmh N 8.0 mph12.9 kmh 30.48 in1032.2 mb 0.00 in0.0 mm 0.00 in0.0 mm 0.00 in0.0 mm
02:32 PM 33.4°F0.8°C 22.1°F-5.5°C 63% 3.0 mph N4.8 kmh N 8.0 mph12.9 kmh 30.48 in1032.2 mb 0.00 in0.0 mm 0.00 in0.0 mm 0.00 in0.0 mm
02:35 PM 33.4°F0.8°C 22.1°F-5.5°C 63% 4.0 mph N6.4 kmh N 11.0 mph17.7 kmh 30.48 in1032.2 mb 0.00 in0.0 mm 0.00 in0.0 mm 0.00 in0.0 mm
02:36 PM 33.4°F0.8°C 22.1°F-5.5°C 63% 4.0 mph N6.4 kmh N 12.0 mph19.3 kmh 30.48 in1032.2 mb 0.00 in0.0 mm 0.00 in0.0 mm 0.00 in0.0 mm
02:38 PM 33.5°F0.8°C 22.2°F-5.4°C 63% 4.0 mph N6.4 kmh N 12.0 mph19.3 kmh 30.47 in1031.8 mb 0.00 in0.0 mm 0.00 in0.0 mm 0.00 in0.0 mm
02:39 PM 33.5°F0.8°C 22.2°F-5.4°C 63% 4.0 mph N6.4 kmh N 12.0 mph19.3 kmh 30.48 in1032.2 mb 0.00 in0.0 mm 0.00 in0.0 mm 0.00 in0.0 mm
02:40 PM 33.5°F0.8°C 22.2°F-5.4°C 63% 4.0 mph N6.4 kmh N 12.0 mph19.3 kmh 30.47 in1031.8 mb 0.00 in0.0 mm 0.00 in0.0 mm 0.00 in0.0 mm
02:46 PM 33.4°F0.8°C 21.8°F-5.7°C 62% 5.0 mph N8.0 kmh N 9.0 mph14.5 kmh 30.47 in1031.8 mb 0.00 in0.0 mm 0.00 in0.0 mm 0.00 in0.0 mm
02:50 PM 33.5°F0.8°C 22.2°F-5.4°C 63% 4.0 mph N6.4 kmh N 9.0 mph14.5 kmh 30.48 in1032.2 mb 0.00 in0.0 mm 0.00 in0.0 mm 0.00 in0.0 mm
02:51 PM 33.5°F0.8°C 22.2°F-5.4°C 63% 4.0 mph N6.4 kmh N 9.0 mph14.5 kmh 30.48 in1032.2 mb 0.00 in0.0 mm 0.00 in0.0 mm 0.00 in0.0 mm
02:52 PM 33.5°F0.8°C 22.2°F-5.4°C 63% 3.0 mph N4.8 kmh N 8.0 mph12.9 kmh 30.48 in1032.2 mb 0.00 in0.0 mm 0.00 in0.0 mm 0.00 in0.0 mm
02:53 PM 33.5°F0.8°C 22.2°F-5.4°C 63% 3.0 mph NNE4.8 kmh NNE 7.0 mph11.3 kmh 30.48 in1032.2 mb 0.00 in0.0 mm 0.00 in0.0 mm 0.00 in0.0 mm
02:54 PM 33.5°F0.8°C 22.2°F-5.4°C 63% 3.0 mph NNE4.8 kmh NNE 7.0 mph11.3 kmh 30.48 in1032.2 mb 0.00 in0.0 mm 0.00 in0.0 mm 0.00 in0.0 mm
02:55 PM 33.5°F0.8°C 22.2°F-5.4°C 63% 3.0 mph NNE4.8 kmh NNE 8.0 mph12.9 kmh 30.48 in1032.2 mb 0.00 in0.0 mm 0.00 in0.0 mm 0.00 in0.0 mm
02:57 PM 33.5°F0.8°C 21.9°F-5.6°C 62% 3.0 mph N4.8 kmh N 9.0 mph14.5 kmh 30.48 in1032.2 mb 0.00 in0.0 mm 0.00 in0.0 mm 0.00 in0.0 mm
02:58 PM 33.5°F0.8°C 21.9°F-5.6°C 62% 3.0 mph N4.8 kmh N 9.0 mph14.5 kmh 30.48 in1032.2 mb 0.00 in0.0 mm 0.00 in0.0 mm 0.00 in0.0 mm
02:59 PM 33.5°F0.8°C 21.9°F-5.6°C 62% 3.0 mph N4.8 kmh N 9.0 mph14.5 kmh 30.48 in1032.2 mb 0.00 in0.0 mm 0.00 in0.0 mm 0.00 in0.0 mm
03:00 PM 33.4°F0.8°C 21.8°F-5.7°C 62% 3.0 mph N4.8 kmh N 9.0 mph14.5 kmh 30.48 in1032.2 mb 0.00 in0.0 mm 0.00 in0.0 mm 0.00 in0.0 mm
03:01 PM 33.4°F0.8°C 21.8°F-5.7°C 62% 3.0 mph N4.8 kmh N 9.0 mph14.5 kmh 30.48 in1032.2 mb 0.00 in0.0 mm 0.00 in0.0 mm 0.00 in0.0 mm
03:02 PM 33.4°F0.8°C 21.8°F-5.7°C 62% 3.0 mph N4.8 kmh N 9.0 mph14.5 kmh 30.48 in1032.2 mb 0.00 in0.0 mm 0.00 in0.0 mm 0.00 in0.0 mm
03:03 PM 33.4°F0.8°C 21.8°F-5.7°C 62% 3.0 mph N4.8 kmh N 9.0 mph14.5 kmh 30.48 in1032.2 mb 0.00 in0.0 mm 0.00 in0.0 mm 0.00 in0.0 mm
03:04 PM 33.5°F0.8°C 21.9°F-5.6°C 62% 3.0 mph N4.8 kmh N 9.0 mph14.5 kmh 30.48 in1032.2 mb 0.00 in0.0 mm 0.00 in0.0 mm 0.00 in0.0 mm
03:05 PM 33.5°F0.8°C 21.9°F-5.6°C 62% 3.0 mph N4.8 kmh N 9.0 mph14.5 kmh 30.48 in1032.2 mb 0.00 in0.0 mm 0.00 in0.0 mm 0.00 in0.0 mm
03:08 PM 33.6°F0.9°C 22.0°F-5.6°C 62% 3.0 mph N4.8 kmh N 11.0 mph17.7 kmh 30.48 in1032.2 mb 0.00 in0.0 mm 0.00 in0.0 mm 0.00 in0.0 mm
03:09 PM 33.7°F0.9°C 22.1°F-5.5°C 62% 4.0 mph N6.4 kmh N 11.0 mph17.7 kmh 30.48 in1032.2 mb 0.00 in0.0 mm 0.00 in0.0 mm 0.00 in0.0 mm
03:11 PM 33.7°F0.9°C 22.1°F-5.5°C 62% 4.0 mph N6.4 kmh N 12.0 mph19.3 kmh 30.48 in1032.2 mb 0.00 in0.0 mm 0.00 in0.0 mm 0.00 in0.0 mm
03:14 PM 33.8°F1.0°C 22.1°F-5.5°C 62% 4.0 mph N6.4 kmh N 12.0 mph19.3 kmh 30.48 in1032.2 mb 0.00 in0.0 mm 0.00 in0.0 mm 0.00 in0.0 mm
03:18 PM 33.9°F1.1°C 22.2°F-5.4°C 62% 4.0 mph N6.4 kmh N 12.0 mph19.3 kmh 30.48 in1032.2 mb 0.00 in0.0 mm 0.00 in0.0 mm 0.00 in0.0 mm
03:28 PM 34.2°F1.2°C 22.5°F-5.3°C 62% 2.0 mph N3.2 kmh N 8.0 mph12.9 kmh 30.47 in1031.8 mb 0.00 in0.0 mm 0.00 in0.0 mm 0.00 in0.0 mm
03:29 PM 34.3°F1.3°C 22.6°F-5.2°C 62% 2.0 mph N3.2 kmh N 8.0 mph12.9 kmh 30.47 in1031.8 mb 0.00 in0.0 mm 0.00 in0.0 mm 0.00 in0.0 mm
03:33 PM 34.3°F1.3°C 22.6°F-5.2°C 62% 3.0 mph N4.8 kmh N 10.0 mph16.1 kmh 30.48 in1032.2 mb 0.00 in0.0 mm 0.00 in0.0 mm 0.00 in0.0 mm
03:34 PM 34.3°F1.3°C 22.6°F-5.2°C 62% 3.0 mph N4.8 kmh N 10.0 mph16.1 kmh 30.48 in1032.2 mb 0.00 in0.0 mm 0.00 in0.0 mm 0.00 in0.0 mm
03:35 PM 34.3°F1.3°C 22.6°F-5.2°C 62% 3.0 mph N4.8 kmh N 10.0 mph16.1 kmh 30.48 in1032.2 mb 0.00 in0.0 mm 0.00 in0.0 mm 0.00 in0.0 mm
03:36 PM 34.2°F1.2°C 22.5°F-5.3°C 62% 4.0 mph N6.4 kmh N 10.0 mph16.1 kmh 30.48 in1032.2 mb 0.00 in0.0 mm 0.00 in0.0 mm 0.00 in0.0 mm
03:42 PM 34.3°F1.3°C 22.6°F-5.2°C 62% 4.0 mph N6.4 kmh N 9.0 mph14.5 kmh 30.48 in1032.2 mb 0.00 in0.0 mm 0.00 in0.0 mm 0.00 in0.0 mm
03:44 PM 34.3°F1.3°C 22.6°F-5.2°C 62% 4.0 mph N6.4 kmh N 10.0 mph16.1 kmh 30.48 in1032.2 mb 0.00 in0.0 mm 0.00 in0.0 mm 0.00 in0.0 mm
03:45 PM 34.4°F1.3°C 22.7°F-5.2°C 62% 4.0 mph N6.4 kmh N 10.0 mph16.1 kmh 30.48 in1032.2 mb 0.00 in0.0 mm 0.00 in0.0 mm 0.00 in0.0 mm
03:47 PM 34.4°F1.3°C 22.3°F-5.4°C 61% 4.0 mph N6.4 kmh N 10.0 mph16.1 kmh 30.48 in1032.2 mb 0.00 in0.0 mm 0.00 in0.0 mm 0.00 in0.0 mm
03:52 PM 34.4°F1.3°C 22.3°F-5.4°C 61% 5.0 mph N8.0 kmh N 10.0 mph16.1 kmh 30.48 in1032.2 mb 0.00 in0.0 mm 0.00 in0.0 mm 0.00 in0.0 mm
03:53 PM 34.4°F1.3°C 22.3°F-5.4°C 61% 5.0 mph N8.0 kmh N 10.0 mph16.1 kmh 30.48 in1032.2 mb 0.00 in0.0 mm 0.00 in0.0 mm 0.00 in0.0 mm
03:56 PM 34.4°F1.3°C 22.3°F-5.4°C 61% 4.0 mph N6.4 kmh N 10.0 mph16.1 kmh 30.48 in1032.2 mb 0.00 in0.0 mm 0.00 in0.0 mm 0.00 in0.0 mm
03:58 PM 34.3°F1.3°C 22.2°F-5.4°C 61% 4.0 mph NNE6.4 kmh NNE 10.0 mph16.1 kmh 30.48 in1032.2 mb 0.00 in0.0 mm 0.00 in0.0 mm 0.00 in0.0 mm
03:59 PM 34.3°F1.3°C 22.2°F-5.4°C 61% 4.0 mph N6.4 kmh N 10.0 mph16.1 kmh 30.48 in1032.2 mb 0.00 in0.0 mm 0.00 in0.0 mm 0.00 in0.0 mm
04:00 PM 34.3°F1.3°C 22.2°F-5.4°C 61% 4.0 mph N6.4 kmh N 10.0 mph16.1 kmh 30.48 in1032.2 mb 0.00 in0.0 mm 0.00 in0.0 mm 0.00 in0.0 mm
04:03 PM 34.3°F1.3°C 22.2°F-5.4°C 61% 4.0 mph N6.4 kmh N 9.0 mph14.5 kmh 30.48 in1032.2 mb 0.00 in0.0 mm 0.00 in0.0 mm 0.00 in0.0 mm
04:04 PM 34.2°F1.2°C 22.1°F-5.5°C 61% 4.0 mph N6.4 kmh N 9.0 mph14.5 kmh 30.48 in1032.2 mb 0.00 in0.0 mm 0.00 in0.0 mm 0.00 in0.0 mm
04:05 PM 34.2°F1.2°C 22.1°F-5.5°C 61% 4.0 mph N6.4 kmh N 9.0 mph14.5 kmh 30.48 in1032.2 mb 0.00 in0.0 mm 0.00 in0.0 mm 0.00 in0.0 mm
04:06 PM 34.2°F1.2°C 22.1°F-5.5°C 61% 4.0 mph N6.4 kmh N 9.0 mph14.5 kmh 30.48 in1032.2 mb 0.00 in0.0 mm 0.00 in0.0 mm 0.00 in0.0 mm
04:07 PM 34.1°F1.2°C 22.0°F-5.6°C 61% 4.0 mph N6.4 kmh N 9.0 mph14.5 kmh 30.48 in1032.2 mb 0.00 in0.0 mm 0.00 in0.0 mm 0.00 in0.0 mm
04:08 PM 34.1°F1.2°C 22.0°F-5.6°C 61% 3.0 mph N4.8 kmh N 9.0 mph14.5 kmh 30.48 in1032.2 mb 0.00 in0.0 mm 0.00 in0.0 mm 0.00 in0.0 mm
04:09 PM 34.1°F1.2°C 22.0°F-5.6°C 61% 3.0 mph N4.8 kmh N 9.0 mph14.5 kmh 30.48 in1032.2 mb 0.00 in0.0 mm 0.00 in0.0 mm 0.00 in0.0 mm
04:10 PM 34.1°F1.2°C 22.0°F-5.6°C 61% 3.0 mph NNW4.8 kmh NNW 9.0 mph14.5 kmh 30.48 in1032.2 mb 0.00 in0.0 mm 0.00 in0.0 mm 0.00 in0.0 mm
04:11 PM 34.1°F1.2°C 22.0°F-5.6°C 61% 2.0 mph N3.2 kmh N 9.0 mph14.5 kmh 30.48 in1032.2 mb 0.00 in0.0 mm 0.00 in0.0 mm 0.00 in0.0 mm
04:13 PM 34.1°F1.2°C 22.0°F-5.6°C 61% 3.0 mph N4.8 kmh N 10.0 mph16.1 kmh 30.48 in1032.2 mb 0.00 in0.0 mm 0.00 in0.0 mm 0.00 in0.0 mm
04:14 PM 34.1°F1.2°C 22.0°F-5.6°C 61% 3.0 mph N4.8 kmh N 10.0 mph16.1 kmh 30.48 in1032.2 mb 0.00 in0.0 mm 0.00 in0.0 mm 0.00 in0.0 mm
04:15 PM 34.1°F1.2°C 22.0°F-5.6°C 61% 3.0 mph N4.8 kmh N 10.0 mph16.1 kmh 30.48 in1032.2 mb 0.00 in0.0 mm 0.00 in0.0 mm 0.00 in0.0 mm
04:18 PM 34.1°F1.2°C 21.7°F-5.7°C 60% 3.0 mph NNE4.8 kmh NNE 10.0 mph16.1 kmh 30.48 in1032.2 mb 0.00 in0.0 mm 0.00 in0.0 mm 0.00 in0.0 mm
04:21 PM 34.1°F1.2°C 21.7°F-5.7°C 60% 4.0 mph NNE6.4 kmh NNE 10.0 mph16.1 kmh 30.48 in1032.2 mb 0.00 in0.0 mm 0.00 in0.0 mm 0.00 in0.0 mm
04:22 PM 34.1°F1.2°C 21.7°F-5.7°C 60% 4.0 mph NNE6.4 kmh NNE 9.0 mph14.5 kmh 30.49 in1032.5 mb 0.00 in0.0 mm 0.00 in0.0 mm 0.00 in0.0 mm
04:24 PM 34.1°F1.2°C 21.7°F-5.7°C 60% 3.0 mph NNE4.8 kmh NNE 9.0 mph14.5 kmh 30.48 in1032.2 mb 0.00 in0.0 mm 0.00 in0.0 mm 0.00 in0.0 mm
04:25 PM 34.1°F1.2°C 21.7°F-5.7°C 60% 3.0 mph N4.8 kmh N 9.0 mph14.5 kmh 30.49 in1032.5 mb 0.00 in0.0 mm 0.00 in0.0 mm 0.00 in0.0 mm
04:26 PM 34.1°F1.2°C 21.7°F-5.7°C 60% 4.0 mph N6.4 kmh N 9.0 mph14.5 kmh 30.48 in1032.2 mb 0.00 in0.0 mm 0.00 in0.0 mm 0.00 in0.0 mm
04:27 PM 34.1°F1.2°C 21.7°F-5.7°C 60% 4.0 mph N6.4 kmh N 9.0 mph14.5 kmh 30.48 in1032.2 mb 0.00 in0.0 mm 0.00 in0.0 mm 0.00 in0.0 mm
04:30 PM 34.1°F1.2°C 21.7°F-5.7°C 60% 5.0 mph N8.0 kmh N 12.0 mph19.3 kmh 30.48 in1032.2 mb 0.00 in0.0 mm 0.00 in0.0 mm 0.00 in0.0 mm
04:31 PM 34.1°F1.2°C 21.7°F-5.7°C 60% 5.0 mph N8.0 kmh N 12.0 mph19.3 kmh 30.48 in1032.2 mb 0.00 in0.0 mm 0.00 in0.0 mm 0.00 in0.0 mm
04:33 PM 34.1°F1.2°C 21.7°F-5.7°C 60% 6.0 mph N9.7 kmh N 12.0 mph19.3 kmh 30.48 in1032.2 mb 0.00 in0.0 mm 0.00 in0.0 mm 0.00 in0.0 mm
04:35 PM 34.1°F1.2°C 21.7°F-5.7°C 60% 6.0 mph N9.7 kmh N 12.0 mph19.3 kmh 30.48 in1032.2 mb 0.00 in0.0 mm 0.00 in0.0 mm 0.00 in0.0 mm
04:36 PM 34.1°F1.2°C 21.7°F-5.7°C 60% 6.0 mph N9.7 kmh N 12.0 mph19.3 kmh 30.48 in1032.2 mb 0.00 in0.0 mm 0.00 in0.0 mm 0.00 in0.0 mm
04:46 PM 34.1°F1.2°C 21.7°F-5.7°C 60% 4.0 mph N6.4 kmh N 5.0 mph8.0 kmh 30.49 in1032.5 mb 0.00 in0.0 mm 0.00 in0.0 mm 0.00 in0.0 mm
04:47 PM 34.1°F1.2°C 21.7°F-5.7°C 60% 4.0 mph N6.4 kmh N 6.0 mph9.7 kmh 30.48 in1032.2 mb 0.00 in0.0 mm 0.00 in0.0 mm 0.00 in0.0 mm
04:48 PM 34.1°F1.2°C 21.7°F-5.7°C 60% 4.0 mph N6.4 kmh N 6.0 mph9.7 kmh 30.48 in1032.2 mb 0.00 in0.0 mm 0.00 in0.0 mm 0.00 in0.0 mm
04:49 PM 34.1°F1.2°C 21.7°F-5.7°C 60% 3.0 mph N4.8 kmh N 6.0 mph9.7 kmh 30.48 in1032.2 mb 0.00 in0.0 mm 0.00 in0.0 mm 0.00 in0.0 mm
04:50 PM 34.1°F1.2°C 21.7°F-5.7°C 60% 3.0 mph N4.8 kmh N 6.0 mph9.7 kmh 30.48 in1032.2 mb 0.00 in0.0 mm 0.00 in0.0 mm 0.00 in0.0 mm
04:53 PM 34.2°F1.2°C 21.7°F-5.7°C 60% 3.0 mph N4.8 kmh N 9.0 mph14.5 kmh 30.48 in1032.2 mb 0.00 in0.0 mm 0.00 in0.0 mm 0.00 in0.0 mm
04:54 PM 34.2°F1.2°C 21.7°F-5.7°C 60% 3.0 mph N4.8 kmh N 9.0 mph14.5 kmh 30.48 in1032.2 mb 0.00 in0.0 mm 0.00 in0.0 mm 0.00 in0.0 mm
04:58 PM 34.2°F1.2°C 21.7°F-5.7°C 60% 3.0 mph N4.8 kmh N 9.0 mph14.5 kmh 30.49 in1032.5 mb 0.00 in0.0 mm 0.00 in0.0 mm 0.00 in0.0 mm
04:59 PM 34.2°F1.2°C 21.7°F-5.7°C 60% 3.0 mph N4.8 kmh N 9.0 mph14.5 kmh 30.49 in1032.5 mb 0.00 in0.0 mm 0.00 in0.0 mm 0.00 in0.0 mm
05:09 PM 34.6°F1.4°C 22.1°F-5.5°C 60% 2.0 mph NNE3.2 kmh NNE 8.0 mph12.9 kmh 30.49 in1032.5 mb 0.00 in0.0 mm 0.00 in0.0 mm 0.00 in0.0 mm
05:10 PM 34.6°F1.4°C 22.1°F-5.5°C 60% 2.0 mph NNE3.2 kmh NNE 8.0 mph12.9 kmh 30.49 in1032.5 mb 0.00 in0.0 mm 0.00 in0.0 mm 0.00 in0.0 mm
05:11 PM 34.7°F1.5°C 22.2°F-5.4°C 60% 2.0 mph N3.2 kmh N 8.0 mph12.9 kmh 30.49 in1032.5 mb 0.00 in0.0 mm 0.00 in0.0 mm 0.00 in0.0 mm
05:12 PM 34.7°F1.5°C 22.2°F-5.4°C 60% 2.0 mph N3.2 kmh N 6.0 mph9.7 kmh 30.49 in1032.5 mb 0.00 in0.0 mm 0.00 in0.0 mm 0.00 in0.0 mm
05:13 PM 34.7°F1.5°C 22.2°F-5.4°C 60% 2.0 mph N3.2 kmh N 6.0 mph9.7 kmh 30.49 in1032.5 mb 0.00 in0.0 mm 0.00 in0.0 mm 0.00 in0.0 mm
05:14 PM 34.8°F1.6°C 22.3°F-5.4°C 60% 2.0 mph N3.2 kmh N 6.0 mph9.7 kmh 30.49 in1032.5 mb 0.00 in0.0 mm 0.00 in0.0 mm 0.00 in0.0 mm
05:15 PM 34.8°F1.6°C 22.3°F-5.4°C 60% 2.0 mph N3.2 kmh N 6.0 mph9.7 kmh 30.49 in1032.5 mb 0.00 in0.0 mm 0.00 in0.0 mm 0.00 in0.0 mm
05:16 PM 34.8°F1.6°C 22.3°F-5.4°C 60% 2.0 mph N3.2 kmh N 5.0 mph8.0 kmh 30.49 in1032.5 mb 0.00 in0.0 mm 0.00 in0.0 mm 0.00 in0.0 mm
05:17 PM 34.8°F1.6°C 22.3°F-5.4°C 60% 2.0 mph N3.2 kmh N 5.0 mph8.0 kmh 30.49 in1032.5 mb 0.00 in0.0 mm 0.00 in0.0 mm 0.00 in0.0 mm
05:18 PM 34.8°F1.6°C 22.3°F-5.4°C 60% 2.0 mph N3.2 kmh N 6.0 mph9.7 kmh 30.49 in1032.5 mb 0.00 in0.0 mm 0.00 in0.0 mm 0.00 in0.0 mm
05:19 PM 34.8°F1.6°C 22.3°F-5.4°C 60% 2.0 mph N3.2 kmh N 6.0 mph9.7 kmh 30.49 in1032.5 mb 0.00 in0.0 mm 0.00 in0.0 mm 0.00 in0.0 mm
05:20 PM 34.8°F1.6°C 21.9°F-5.6°C 59% 2.0 mph N3.2 kmh N 6.0 mph9.7 kmh 30.50 in1032.8 mb 0.00 in0.0 mm 0.00 in0.0 mm 0.00 in0.0 mm
05:21 PM 34.8°F1.6°C 21.9°F-5.6°C 59% 2.0 mph N3.2 kmh N 6.0 mph9.7 kmh 30.49 in1032.5 mb 0.00 in0.0 mm 0.00 in0.0 mm 0.00 in0.0 mm
05:22 PM 34.7°F1.5°C 21.8°F-5.7°C 59% 2.0 mph N3.2 kmh N 6.0 mph9.7 kmh 30.49 in1032.5 mb 0.00 in0.0 mm 0.00 in0.0 mm 0.00 in0.0 mm
05:23 PM 34.7°F1.5°C 21.8°F-5.7°C 59% 2.0 mph N3.2 kmh N 6.0 mph9.7 kmh 30.50 in1032.8 mb 0.00 in0.0 mm 0.00 in0.0 mm 0.00 in0.0 mm
05:24 PM 34.7°F1.5°C 21.8°F-5.7°C 59% 3.0 mph N4.8 kmh N 9.0 mph14.5 kmh 30.49 in1032.5 mb 0.00 in0.0 mm 0.00 in0.0 mm 0.00 in0.0 mm
05:25 PM 34.6°F1.4°C 21.7°F-5.7°C 59% 3.0 mph N4.8 kmh N 9.0 mph14.5 kmh 30.50 in1032.8 mb 0.00 in0.0 mm 0.00 in0.0 mm 0.00 in0.0 mm
05:26 PM 34.5°F1.4°C 21.6°F-5.8°C 59% 3.0 mph N4.8 kmh N 9.0 mph14.5 kmh 30.50 in1032.8 mb 0.00 in0.0 mm 0.00 in0.0 mm 0.00 in0.0 mm
05:27 PM 34.5°F1.4°C 21.6°F-5.8°C 59% 3.0 mph N4.8 kmh N 9.0 mph14.5 kmh 30.50 in1032.8 mb 0.00 in0.0 mm 0.00 in0.0 mm 0.00 in0.0 mm
05:28 PM 34.4°F1.3°C 21.5°F-5.8°C 59% 3.0 mph N4.8 kmh N 9.0 mph14.5 kmh 30.50 in1032.8 mb 0.00 in0.0 mm 0.00 in0.0 mm 0.00 in0.0 mm
05:30 PM 34.3°F1.3°C 21.4°F-5.9°C 59% 4.0 mph N6.4 kmh N 9.0 mph14.5 kmh 30.49 in1032.5 mb 0.00 in0.0 mm 0.00 in0.0 mm 0.00 in0.0 mm
05:31 PM 34.3°F1.3°C 21.4°F-5.9°C 59% 4.0 mph N6.4 kmh N 9.0 mph14.5 kmh 30.50 in1032.8 mb 0.00 in0.0 mm 0.00 in0.0 mm 0.00 in0.0 mm
05:32 PM 34.2°F1.2°C 21.4°F-5.9°C 59% 4.0 mph N6.4 kmh N 9.0 mph14.5 kmh 30.49 in1032.5 mb 0.00 in0.0 mm 0.00 in0.0 mm 0.00 in0.0 mm
05:39 PM 34.0°F1.1°C 21.2°F-6.0°C 59% 4.0 mph N6.4 kmh N 9.0 mph14.5 kmh 30.50 in1032.8 mb 0.00 in0.0 mm 0.00 in0.0 mm 0.00 in0.0 mm
05:47 PM 33.8°F1.0°C 21.0°F-6.1°C 59% 2.0 mph N3.2 kmh N 9.0 mph14.5 kmh 30.50 in1032.8 mb 0.00 in0.0 mm 0.00 in0.0 mm 0.00 in0.0 mm
05:48 PM 33.8°F1.0°C 21.0°F-6.1°C 59% 2.0 mph N3.2 kmh N 8.0 mph12.9 kmh 30.50 in1032.8 mb 0.00 in0.0 mm 0.00 in0.0 mm 0.00 in0.0 mm
05:49 PM 33.8°F1.0°C 21.0°F-6.1°C 59% 2.0 mph N3.2 kmh N 8.0 mph12.9 kmh 30.50 in1032.8 mb 0.00 in0.0 mm 0.00 in0.0 mm 0.00 in0.0 mm
05:50 PM 33.8°F1.0°C 21.0°F-6.1°C 59% 2.0 mph N3.2 kmh N 8.0 mph12.9 kmh 30.50 in1032.8 mb 0.00 in0.0 mm 0.00 in0.0 mm 0.00 in0.0 mm
05:54 PM 33.7°F0.9°C 20.9°F-6.2°C 59% 2.0 mph N3.2 kmh N 8.0 mph12.9 kmh 30.50 in1032.8 mb 0.00 in0.0 mm 0.00 in0.0 mm 0.00 in0.0 mm
05:55 PM 33.7°F0.9°C 20.9°F-6.2°C 59% 2.0 mph N3.2 kmh N 8.0 mph12.9 kmh 30.50 in1032.8 mb 0.00 in0.0 mm 0.00 in0.0 mm 0.00 in0.0 mm
05:56 PM 33.7°F0.9°C 20.9°F-6.2°C 59% 2.0 mph N3.2 kmh N 8.0 mph12.9 kmh 30.50 in1032.8 mb 0.00 in0.0 mm 0.00 in0.0 mm 0.00 in0.0 mm
05:57 PM 33.7°F0.9°C 20.9°F-6.2°C 59% 2.0 mph N3.2 kmh N 8.0 mph12.9 kmh 30.50 in1032.8 mb 0.00 in0.0 mm 0.00 in0.0 mm 0.00 in0.0 mm
05:58 PM 33.7°F0.9°C 20.9°F-6.2°C 59% 2.0 mph N3.2 kmh N 8.0 mph12.9 kmh 30.50 in1032.8 mb 0.00 in0.0 mm 0.00 in0.0 mm 0.00 in0.0 mm
05:59 PM 33.7°F0.9°C 20.9°F-6.2°C 59% 2.0 mph N3.2 kmh N 8.0 mph12.9 kmh 30.50 in1032.8 mb 0.00 in0.0 mm 0.00 in0.0 mm 0.00 in0.0 mm
06:00 PM 33.6°F0.9°C 20.8°F-6.2°C 59% 2.0 mph N3.2 kmh N 8.0 mph12.9 kmh 30.50 in1032.8 mb 0.00 in0.0 mm 0.00 in0.0 mm 0.00 in0.0 mm
06:01 PM 33.6°F0.9°C 20.8°F-6.2°C 59% 2.0 mph N3.2 kmh N 8.0 mph12.9 kmh 30.50 in1032.8 mb 0.00 in0.0 mm 0.00 in0.0 mm 0.00 in0.0 mm
06:02 PM 33.6°F0.9°C 20.8°F-6.2°C 59% 3.0 mph N4.8 kmh N 8.0 mph12.9 kmh 30.50 in1032.8 mb 0.00 in0.0 mm 0.00 in0.0 mm 0.00 in0.0 mm
06:04 PM 33.6°F0.9°C 20.8°F-6.2°C 59% 3.0 mph N4.8 kmh N 8.0 mph12.9 kmh 30.50 in1032.8 mb 0.00 in0.0 mm 0.00 in0.0 mm 0.00 in0.0 mm
06:07 PM 33.5°F0.8°C 20.3°F-6.5°C 58% 3.0 mph N4.8 kmh N 8.0 mph12.9 kmh 30.51 in1033.2 mb 0.00 in0.0 mm 0.00 in0.0 mm 0.00 in0.0 mm
06:09 PM 33.4°F0.8°C 20.2°F-6.6°C 58% 4.0 mph N6.4 kmh N 8.0 mph12.9 kmh 30.50 in1032.8 mb 0.00 in0.0 mm 0.00 in0.0 mm 0.00 in0.0 mm
06:10 PM 33.4°F0.8°C 20.2°F-6.6°C 58% 4.0 mph N6.4 kmh N 8.0 mph12.9 kmh 30.50 in1032.8 mb 0.00 in0.0 mm 0.00 in0.0 mm 0.00 in0.0 mm
06:18 PM 33.2°F0.7°C 20.0°F-6.7°C 58% 3.0 mph N4.8 kmh N 8.0 mph12.9 kmh 30.51 in1033.2 mb 0.00 in0.0 mm 0.00 in0.0 mm 0.00 in0.0 mm
06:24 PM 33.0°F0.6°C 19.8°F-6.8°C 58% 2.0 mph N3.2 kmh N 7.0 mph11.3 kmh 30.51 in1033.2 mb 0.00 in0.0 mm 0.00 in0.0 mm 0.00 in0.0 mm
06:25 PM 32.9°F0.5°C 19.7°F-6.8°C 58% 2.0 mph N3.2 kmh N 7.0 mph11.3 kmh 30.51 in1033.2 mb 0.00 in0.0 mm 0.00 in0.0 mm 0.00 in0.0 mm
06:26 PM 32.9°F0.5°C 19.7°F-6.8°C 58% 2.0 mph N3.2 kmh N 6.0 mph9.7 kmh 30.51 in1033.2 mb 0.00 in0.0 mm 0.00 in0.0 mm 0.00 in0.0 mm
06:27 PM 32.9°F0.5°C 19.7°F-6.8°C 58% 2.0 mph N3.2 kmh N 6.0 mph9.7 kmh 30.51 in1033.2 mb 0.00 in0.0 mm 0.00 in0.0 mm 0.00 in0.0 mm
06:28 PM 32.8°F0.4°C 19.6°F-6.9°C 58% 1.0 mph N1.6 kmh N 6.0 mph9.7 kmh 30.51 in1033.2 mb 0.00 in0.0 mm 0.00 in0.0 mm 0.00 in0.0 mm
06:29 PM 32.8°F0.4°C 19.6°F-6.9°C 58% 1.0 mph N1.6 kmh N 6.0 mph9.7 kmh 30.51 in1033.2 mb 0.00 in0.0 mm 0.00 in0.0 mm 0.00 in0.0 mm
06:30 PM 32.8°F0.4°C 19.6°F-6.9°C 58% 1.0 mph N1.6 kmh N 6.0 mph9.7 kmh 30.51 in1033.2 mb 0.00 in0.0 mm 0.00 in0.0 mm 0.00 in0.0 mm
06:31 PM 32.7°F0.4°C 19.5°F-6.9°C 58% 1.0 mph N1.6 kmh N 7.0 mph11.3 kmh 30.51 in1033.2 mb 0.00 in0.0 mm 0.00 in0.0 mm 0.00 in0.0 mm
06:32 PM 32.6°F0.3°C 19.4°F-7.0°C 58% 1.0 mph N1.6 kmh N 7.0 mph11.3 kmh 30.51 in1033.2 mb 0.00 in0.0 mm 0.00 in0.0 mm 0.00 in0.0 mm
06:33 PM 32.6°F0.3°C 19.4°F-7.0°C 58% 1.0 mph N1.6 kmh N 7.0 mph11.3 kmh 30.51 in1033.2 mb 0.00 in0.0 mm 0.00 in0.0 mm 0.00 in0.0 mm
06:34 PM 32.5°F0.3°C 19.3°F-7.1°C 58% 1.0 mph N1.6 kmh N 7.0 mph11.3 kmh 30.51 in1033.2 mb 0.00 in0.0 mm 0.00 in0.0 mm 0.00 in0.0 mm
06:35 PM 32.5°F0.3°C 19.3°F-7.1°C 58% 1.0 mph N1.6 kmh N 7.0 mph11.3 kmh 30.51 in1033.2 mb 0.00 in0.0 mm 0.00 in0.0 mm 0.00 in0.0 mm
06:39 PM 32.3°F0.2°C 19.2°F-7.1°C 58% 1.0 mph N1.6 kmh N 7.0 mph11.3 kmh 30.51 in1033.2 mb 0.00 in0.0 mm 0.00 in0.0 mm 0.00 in0.0 mm
06:40 PM 32.3°F0.2°C 19.2°F-7.1°C 58% 1.0 mph N1.6 kmh N 7.0 mph11.3 kmh 30.51 in1033.2 mb 0.00 in0.0 mm 0.00 in0.0 mm 0.00 in0.0 mm
06:42 PM 32.1°F0.1°C 19.0°F-7.2°C 58% Calm Calm 2.0 mph3.2 kmh 30.51 in1033.2 mb 0.00 in0.0 mm 0.00 in0.0 mm 0.00 in0.0 mm
06:44 PM 32.0°F0.0°C 18.9°F-7.3°C 58% Calm Calm 2.0 mph3.2 kmh 30.51 in1033.2 mb 0.00 in0.0 mm 0.00 in0.0 mm 0.00 in0.0 mm
06:45 PM 32.0°F0.0°C 18.9°F-7.3°C 58% Calm Calm 2.0 mph3.2 kmh 30.51 in1033.2 mb 0.00 in0.0 mm 0.00 in0.0 mm 0.00 in0.0 mm
06:46 PM 32.0°F0.0°C 18.9°F-7.3°C 58% Calm Calm 2.0 mph3.2 kmh 30.51 in1033.2 mb 0.00 in0.0 mm 0.00 in0.0 mm 0.00 in0.0 mm
06:47 PM 31.9°F-0.1°C 18.8°F-7.3°C 58% Calm Calm -- 30.51 in1033.2 mb 0.00 in0.0 mm 0.00 in0.0 mm 0.00 in0.0 mm
06:54 PM 31.5°F-0.3°C 18.4°F-7.6°C 58% Calm Calm -- 30.51 in1033.2 mb 0.00 in0.0 mm 0.00 in0.0 mm 0.00 in0.0 mm
07:00 PM 31.2°F-0.4°C 18.1°F-7.7°C 58% Calm Calm -- 30.51 in1033.2 mb 0.00 in0.0 mm 0.00 in0.0 mm 0.00 in0.0 mm
07:03 PM 31.1°F-0.5°C 18.0°F-7.8°C 58% Calm Calm -- 30.52 in1033.5 mb 0.00 in0.0 mm 0.00 in0.0 mm 0.00 in0.0 mm
07:04 PM 31.0°F-0.6°C 17.9°F-7.8°C 58% Calm Calm -- 30.52 in1033.5 mb 0.00 in0.0 mm 0.00 in0.0 mm 0.00 in0.0 mm
07:06 PM 30.9°F-0.6°C 17.8°F-7.9°C 58% Calm Calm -- 30.52 in1033.5 mb 0.00 in0.0 mm 0.00 in0.0 mm 0.00 in0.0 mm
07:09 PM 30.8°F-0.7°C 17.7°F-7.9°C 58% Calm Calm -- 30.52 in1033.5 mb 0.00 in0.0 mm 0.00 in0.0 mm 0.00 in0.0 mm
07:10 PM 30.8°F-0.7°C 17.7°F-7.9°C 58% Calm Calm -- 30.52 in1033.5 mb 0.00 in0.0 mm 0.00 in0.0 mm 0.00 in0.0 mm
07:17 PM 30.5°F-0.8°C 17.5°F-8.1°C 58% Calm Calm -- 30.52 in1033.5 mb 0.00 in0.0 mm 0.00 in0.0 mm 0.00 in0.0 mm
07:18 PM 30.4°F-0.9°C 17.4°F-8.1°C 58% Calm Calm -- 30.52 in1033.5 mb 0.00 in0.0 mm 0.00 in0.0 mm 0.00 in0.0 mm
07:19 PM 30.3°F-0.9°C 17.3°F-8.2°C 58% Calm Calm -- 30.52 in1033.5 mb 0.00 in0.0 mm 0.00 in0.0 mm 0.00 in0.0 mm
07:24 PM 30.1°F-1.1°C 17.1°F-8.3°C 58% Calm Calm -- 30.52 in1033.5 mb 0.00 in0.0 mm 0.00 in0.0 mm 0.00 in0.0 mm
07:25 PM 30.0°F-1.1°C 17.0°F-8.3°C 58% Calm Calm -- 30.52 in1033.5 mb 0.00 in0.0 mm 0.00 in0.0 mm 0.00 in0.0 mm
07:26 PM 29.9°F-1.2°C 16.9°F-8.4°C 58% Calm Calm -- 30.52 in1033.5 mb 0.00 in0.0 mm 0.00 in0.0 mm 0.00 in0.0 mm
07:27 PM 29.9°F-1.2°C 16.9°F-8.4°C 58% Calm Calm -- 30.52 in1033.5 mb 0.00 in0.0 mm 0.00 in0.0 mm 0.00 in0.0 mm
07:29 PM 29.7°F-1.3°C 16.7°F-8.5°C 58% Calm Calm -- 30.52 in1033.5 mb 0.00 in0.0 mm 0.00 in0.0 mm 0.00 in0.0 mm
07:35 PM 29.3°F-1.5°C 16.3°F-8.7°C 58% Calm Calm -- 30.52 in1033.5 mb 0.00 in0.0 mm 0.00 in0.0 mm 0.00 in0.0 mm
07:36 PM 29.2°F-1.6°C 16.2°F-8.8°C 58% Calm Calm -- 30.52 in1033.5 mb 0.00 in0.0 mm 0.00 in0.0 mm 0.00 in0.0 mm
07:37 PM 29.1°F-1.6°C 16.5°F-8.6°C 59% Calm Calm -- 30.53 in1033.9 mb 0.00 in0.0 mm 0.00 in0.0 mm 0.00 in0.0 mm
07:38 PM 29.1°F-1.6°C 16.5°F-8.6°C 59% Calm Calm -- 30.53 in1033.9 mb 0.00 in0.0 mm 0.00 in0.0 mm 0.00 in0.0 mm
07:42 PM 28.8°F-1.8°C 16.3°F-8.7°C 59% Calm Calm -- 30.52 in1033.5 mb 0.00 in0.0 mm 0.00 in0.0 mm 0.00 in0.0 mm
07:43 PM 28.7°F-1.8°C 16.2°F-8.8°C 59% Calm Calm -- 30.52 in1033.5 mb 0.00 in0.0 mm 0.00 in0.0 mm 0.00 in0.0 mm
07:48 PM 28.4°F-2.0°C 15.9°F-8.9°C 59% Calm Calm -- 30.53 in1033.9 mb 0.00 in0.0 mm 0.00 in0.0 mm 0.00 in0.0 mm
07:49 PM 28.3°F-2.1°C 15.8°F-9.0°C 59% Calm Calm -- 30.53 in1033.9 mb 0.00 in0.0 mm 0.00 in0.0 mm 0.00 in0.0 mm
07:53 PM 28.0°F-2.2°C 15.5°F-9.2°C 59% Calm Calm -- 30.53 in1033.9 mb 0.00 in0.0 mm 0.00 in0.0 mm 0.00 in0.0 mm
07:54 PM 28.0°F-2.2°C 15.5°F-9.2°C 59% Calm Calm -- 30.53 in1033.9 mb 0.00 in0.0 mm 0.00 in0.0 mm 0.00 in0.0 mm
07:55 PM 27.9°F-2.3°C 15.4°F-9.2°C 59% Calm Calm -- 30.53 in1033.9 mb 0.00 in0.0 mm 0.00 in0.0 mm 0.00 in0.0 mm
07:56 PM 27.9°F-2.3°C 15.8°F-9.0°C 60% Calm Calm -- 30.53 in1033.9 mb 0.00 in0.0 mm 0.00 in0.0 mm 0.00 in0.0 mm
07:57 PM 27.8°F-2.3°C 15.7°F-9.1°C 60% Calm Calm -- 30.53 in1033.9 mb 0.00 in0.0 mm 0.00 in0.0 mm 0.00 in0.0 mm
08:06 PM 27.3°F-2.6°C 15.2°F-9.3°C 60% Calm Calm -- 30.54 in1034.2 mb 0.00 in0.0 mm 0.00 in0.0 mm 0.00 in0.0 mm
08:09 PM 27.1°F-2.7°C 15.4°F-9.2°C 61% Calm Calm -- 30.54 in1034.2 mb 0.00 in0.0 mm 0.00 in0.0 mm 0.00 in0.0 mm
08:11 PM 27.0°F-2.8°C 15.3°F-9.3°C 61% Calm Calm -- 30.54 in1034.2 mb 0.00 in0.0 mm 0.00 in0.0 mm 0.00 in0.0 mm
08:13 PM 26.9°F-2.8°C 15.2°F-9.3°C 61% Calm Calm -- 30.54 in1034.2 mb 0.00 in0.0 mm 0.00 in0.0 mm 0.00 in0.0 mm
08:14 PM 26.9°F-2.8°C 15.2°F-9.3°C 61% Calm Calm -- 30.54 in1034.2 mb 0.00 in0.0 mm 0.00 in0.0 mm 0.00 in0.0 mm
08:15 PM 26.8°F-2.9°C 15.1°F-9.4°C 61% Calm Calm -- 30.54 in1034.2 mb 0.00 in0.0 mm 0.00 in0.0 mm 0.00 in0.0 mm
08:23 PM 26.5°F-3.1°C 15.2°F-9.3°C 62% Calm Calm -- 30.54 in1034.2 mb 0.00 in0.0 mm 0.00 in0.0 mm 0.00 in0.0 mm
08:24 PM 26.5°F-3.1°C 15.2°F-9.3°C 62% Calm Calm -- 30.54 in1034.2 mb 0.00 in0.0 mm 0.00 in0.0 mm 0.00 in0.0 mm
08:27 PM 26.4°F-3.1°C 15.1°F-9.4°C 62% Calm Calm -- 30.54 in1034.2 mb 0.00 in0.0 mm 0.00 in0.0 mm 0.00 in0.0 mm
08:28 PM 26.4°F-3.1°C 15.1°F-9.4°C 62% Calm Calm -- 30.54 in1034.2 mb 0.00 in0.0 mm 0.00 in0.0 mm 0.00 in0.0 mm
08:29 PM 26.3°F-3.2°C 15.0°F-9.4°C 62% Calm Calm -- 30.54 in1034.2 mb 0.00 in0.0 mm 0.00 in0.0 mm 0.00 in0.0 mm
08:30 PM 26.3°F-3.2°C 15.0°F-9.4°C 62% Calm Calm -- 30.54 in1034.2 mb 0.00 in0.0 mm 0.00 in0.0 mm 0.00 in0.0 mm
08:34 PM 26.2°F-3.2°C 15.3°F-9.3°C 63% Calm Calm -- 30.54 in1034.2 mb 0.00 in0.0 mm 0.00 in0.0 mm 0.00 in0.0 mm
08:35 PM 26.1°F-3.3°C 15.2°F-9.3°C 63% Calm Calm -- 30.54 in1034.2 mb 0.00 in0.0 mm 0.00 in0.0 mm 0.00 in0.0 mm
08:38 PM 26.0°F-3.3°C 15.1°F-9.4°C 63% Calm Calm -- 30.54 in1034.2 mb 0.00 in0.0 mm 0.00 in0.0 mm 0.00 in0.0 mm
08:39 PM 26.0°F-3.3°C 15.1°F-9.4°C 63% Calm Calm -- 30.54 in1034.2 mb 0.00 in0.0 mm 0.00 in0.0 mm 0.00 in0.0 mm
08:41 PM 25.9°F-3.4°C 15.0°F-9.4°C 63% Calm Calm -- 30.55 in1034.5 mb 0.00 in0.0 mm 0.00 in0.0 mm 0.00 in0.0 mm
08:42 PM 25.8°F-3.4°C 14.9°F-9.5°C 63% Calm Calm -- 30.55 in1034.5 mb 0.00 in0.0 mm 0.00 in0.0 mm 0.00 in0.0 mm
08:45 PM 25.7°F-3.5°C 15.2°F-9.3°C 64% Calm Calm -- 30.55 in1034.5 mb 0.00 in0.0 mm 0.00 in0.0 mm 0.00 in0.0 mm
08:46 PM 25.7°F-3.5°C 15.2°F-9.3°C 64% Calm Calm -- 30.55 in1034.5 mb 0.00 in0.0 mm 0.00 in0.0 mm 0.00 in0.0 mm
08:48 PM 25.7°F-3.5°C 15.2°F-9.3°C 64% Calm Calm -- 30.55 in1034.5 mb 0.00 in0.0 mm 0.00 in0.0 mm 0.00 in0.0 mm
08:49 PM 25.6°F-3.6°C 15.1°F-9.4°C 64% Calm Calm -- 30.55 in1034.5 mb 0.00 in0.0 mm 0.00 in0.0 mm 0.00 in0.0 mm
08:50 PM 25.6°F-3.6°C 15.1°F-9.4°C 64% Calm Calm -- 30.55 in1034.5 mb 0.00 in0.0 mm 0.00 in0.0 mm 0.00 in0.0 mm
08:51 PM 25.6°F-3.6°C 15.1°F-9.4°C 64% Calm Calm -- 30.55 in1034.5 mb 0.00 in0.0 mm 0.00 in0.0 mm 0.00 in0.0 mm
08:52 PM 25.6°F-3.6°C 15.1°F-9.4°C 64% Calm Calm -- 30.55 in1034.5 mb 0.00 in0.0 mm 0.00 in0.0 mm 0.00 in0.0 mm
08:53 PM 25.5°F-3.6°C 15.0°F-9.4°C 64% Calm Calm -- 30.55 in1034.5 mb 0.00 in0.0 mm 0.00 in0.0 mm 0.00 in0.0 mm
08:54 PM 25.5°F-3.6°C 15.0°F-9.4°C 64% Calm Calm -- 30.54 in1034.2 mb 0.00 in0.0 mm 0.00 in0.0 mm 0.00 in0.0 mm
08:57 PM 25.5°F-3.6°C 15.0°F-9.4°C 64% Calm Calm -- 30.55 in1034.5 mb 0.00 in0.0 mm 0.00 in0.0 mm 0.00 in0.0 mm
09:00 PM 25.4°F-3.7°C 15.3°F-9.3°C 65% Calm Calm -- 30.55 in1034.5 mb 0.00 in0.0 mm 0.00 in0.0 mm 0.00 in0.0 mm
09:02 PM 25.5°F-3.6°C 15.4°F-9.2°C 65% Calm Calm -- 30.55 in1034.5 mb 0.00 in0.0 mm 0.00 in0.0 mm 0.00 in0.0 mm
09:03 PM 25.5°F-3.6°C 15.4°F-9.2°C 65% Calm Calm -- 30.55 in1034.5 mb 0.00 in0.0 mm 0.00 in0.0 mm 0.00 in0.0 mm
09:05 PM 25.5°F-3.6°C 15.4°F-9.2°C 65% Calm Calm -- 30.55 in1034.5 mb 0.00 in0.0 mm 0.00 in0.0 mm 0.00 in0.0 mm
09:07 PM 25.5°F-3.6°C 15.4°F-9.2°C 65% Calm Calm -- 30.55 in1034.5 mb 0.00 in0.0 mm 0.00 in0.0 mm 0.00 in0.0 mm
09:09 PM 25.6°F-3.6°C 15.5°F-9.2°C 65% Calm Calm -- 30.55 in1034.5 mb 0.00 in0.0 mm 0.00 in0.0 mm 0.00 in0.0 mm
09:10 PM 25.6°F-3.6°C 15.5°F-9.2°C 65% Calm Calm -- 30.55 in1034.5 mb 0.00 in0.0 mm 0.00 in0.0 mm 0.00 in0.0 mm
09:11 PM 25.6°F-3.6°C 15.5°F-9.2°C 65% Calm Calm -- 30.55 in1034.5 mb 0.00 in0.0 mm 0.00 in0.0 mm 0.00 in0.0 mm
09:12 PM 25.6°F-3.6°C 15.5°F-9.2°C 65% Calm Calm -- 30.55 in1034.5 mb 0.00 in0.0 mm 0.00 in0.0 mm 0.00 in0.0 mm
09:13 PM 25.6°F-3.6°C 15.5°F-9.2°C 65% Calm Calm -- 30.55 in1034.5 mb 0.00 in0.0 mm 0.00 in0.0 mm 0.00 in0.0 mm
09:14 PM 25.6°F-3.6°C 15.5°F-9.2°C 65% Calm Calm -- 30.55 in1034.5 mb 0.00 in0.0 mm 0.00 in0.0 mm 0.00 in0.0 mm
09:15 PM 25.6°F-3.6°C 15.5°F-9.2°C 65% Calm Calm -- 30.56 in1034.9 mb 0.00 in0.0 mm 0.00 in0.0 mm 0.00 in0.0 mm
09:17 PM 25.7°F-3.5°C 15.9°F-8.9°C 66% Calm Calm -- 30.55 in1034.5 mb 0.00 in0.0 mm 0.00 in0.0 mm 0.00 in0.0 mm
09:18 PM 25.7°F-3.5°C 15.9°F-8.9°C 66% Calm Calm -- 30.56 in1034.9 mb 0.00 in0.0 mm 0.00 in0.0 mm 0.00 in0.0 mm
09:19 PM 25.7°F-3.5°C 15.9°F-8.9°C 66% Calm Calm -- 30.56 in1034.9 mb 0.00 in0.0 mm 0.00 in0.0 mm 0.00 in0.0 mm
09:21 PM 25.7°F-3.5°C 15.9°F-8.9°C 66% Calm Calm -- 30.55 in1034.5 mb 0.00 in0.0 mm 0.00 in0.0 mm 0.00 in0.0 mm
09:22 PM 25.7°F-3.5°C 15.9°F-8.9°C 66% Calm Calm -- 30.55 in1034.5 mb 0.00 in0.0 mm 0.00 in0.0 mm 0.00 in0.0 mm
09:23 PM 25.7°F-3.5°C 15.9°F-8.9°C 66% Calm Calm -- 30.55 in1034.5 mb 0.00 in0.0 mm 0.00 in0.0 mm 0.00 in0.0 mm
09:24 PM 25.7°F-3.5°C 15.9°F-8.9°C 66% Calm Calm -- 30.56 in1034.9 mb 0.00 in0.0 mm 0.00 in0.0 mm 0.00 in0.0 mm
09:27 PM 25.6°F-3.6°C 15.8°F-9.0°C 66% Calm Calm -- 30.56 in1034.9 mb 0.00 in0.0 mm 0.00 in0.0 mm 0.00 in0.0 mm
09:29 PM 25.6°F-3.6°C 15.8°F-9.0°C 66% Calm Calm -- 30.55 in1034.5 mb 0.00 in0.0 mm 0.00 in0.0 mm 0.00 in0.0 mm
09:33 PM 25.4°F-3.7°C 15.6°F-9.1°C 66% Calm Calm -- 30.55 in1034.5 mb 0.00 in0.0 mm 0.00 in0.0 mm 0.00 in0.0 mm
09:34 PM 25.4°F-3.7°C 15.6°F-9.1°C 66% Calm Calm -- 30.55 in1034.5 mb 0.00 in0.0 mm 0.00 in0.0 mm 0.00 in0.0 mm
09:35 PM 25.4°F-3.7°C 15.6°F-9.1°C 66% Calm Calm -- 30.56 in1034.9 mb 0.00 in0.0 mm 0.00 in0.0 mm 0.00 in0.0 mm
09:36 PM 25.3°F-3.7°C 15.5°F-9.2°C 66% Calm Calm -- 30.55 in1034.5 mb 0.00 in0.0 mm 0.00 in0.0 mm 0.00 in0.0 mm
09:38 PM 25.3°F-3.7°C 15.5°F-9.2°C 66% Calm Calm -- 30.55 in1034.5 mb 0.00 in0.0 mm 0.00 in0.0 mm 0.00 in0.0 mm
09:39 PM 25.2°F-3.8°C 15.4°F-9.2°C 66% Calm Calm -- 30.55 in1034.5 mb 0.00 in0.0 mm 0.00 in0.0 mm 0.00 in0.0 mm
09:41 PM 25.2°F-3.8°C 15.8°F-9.0°C 67% Calm Calm -- 30.55 in1034.5 mb 0.00 in0.0 mm 0.00 in0.0 mm 0.00 in0.0 mm
09:43 PM 25.1°F-3.8°C 15.7°F-9.1°C 67% Calm Calm -- 30.55 in1034.5 mb 0.00 in0.0 mm 0.00 in0.0 mm 0.00 in0.0 mm
09:51 PM 24.7°F-4.1°C 15.3°F-9.3°C 67% Calm Calm -- 30.55 in1034.5 mb 0.00 in0.0 mm 0.00 in0.0 mm 0.00 in0.0 mm
09:52 PM 24.6°F-4.1°C 15.2°F-9.3°C 67% Calm Calm -- 30.56 in1034.9 mb 0.00 in0.0 mm 0.00 in0.0 mm 0.00 in0.0 mm
09:53 PM 24.6°F-4.1°C 15.2°F-9.3°C 67% Calm Calm -- 30.55 in1034.5 mb 0.00 in0.0 mm 0.00 in0.0 mm 0.00 in0.0 mm
09:57 PM 24.3°F-4.3°C 14.9°F-9.5°C 67% Calm Calm -- 30.55 in1034.5 mb 0.00 in0.0 mm 0.00 in0.0 mm 0.00 in0.0 mm
09:58 PM 24.3°F-4.3°C 14.9°F-9.5°C 67% Calm Calm -- 30.55 in1034.5 mb 0.00 in0.0 mm 0.00 in0.0 mm 0.00 in0.0 mm
09:59 PM 24.2°F-4.3°C 14.8°F-9.6°C 67% Calm Calm -- 30.55 in1034.5 mb 0.00 in0.0 mm 0.00 in0.0 mm 0.00 in0.0 mm
10:00 PM 24.2°F-4.3°C 14.8°F-9.6°C 67% Calm Calm -- 30.55 in1034.5 mb 0.00 in0.0 mm 0.00 in0.0 mm 0.00 in0.0 mm
10:01 PM 24.1°F-4.4°C 14.7°F-9.6°C 67% Calm Calm -- 30.55 in1034.5 mb 0.00 in0.0 mm 0.00 in0.0 mm 0.00 in0.0 mm
10:02 PM 24.1°F-4.4°C 14.7°F-9.6°C 67% Calm Calm -- 30.55 in1034.5 mb 0.00 in0.0 mm 0.00 in0.0 mm 0.00 in0.0 mm
10:04 PM 24.0°F-4.4°C 14.6°F-9.7°C 67% Calm Calm -- 30.55 in1034.5 mb 0.00 in0.0 mm 0.00 in0.0 mm 0.00 in0.0 mm
10:05 PM 24.0°F-4.4°C 14.6°F-9.7°C 67% Calm Calm -- 30.55 in1034.5 mb 0.00 in0.0 mm 0.00 in0.0 mm 0.00 in0.0 mm
10:06 PM 23.9°F-4.5°C 14.5°F-9.7°C 67% Calm Calm -- 30.55 in1034.5 mb 0.00 in0.0 mm 0.00 in0.0 mm 0.00 in0.0 mm
10:07 PM 23.9°F-4.5°C 14.5°F-9.7°C 67% Calm Calm -- 30.55 in1034.5 mb 0.00 in0.0 mm 0.00 in0.0 mm 0.00 in0.0 mm
10:10 PM 23.8°F-4.6°C 14.8°F-9.6°C 68% Calm Calm -- 30.55 in1034.5 mb 0.00 in0.0 mm 0.00 in0.0 mm 0.00 in0.0 mm
10:11 PM 23.7°F-4.6°C 14.7°F-9.6°C 68% Calm Calm -- 30.55 in1034.5 mb 0.00 in0.0 mm 0.00 in0.0 mm 0.00 in0.0 mm
10:12 PM 23.7°F-4.6°C 14.7°F-9.6°C 68% Calm Calm -- 30.55 in1034.5 mb 0.00 in0.0 mm 0.00 in0.0 mm 0.00 in0.0 mm
10:13 PM 23.6°F-4.7°C 14.6°F-9.7°C 68% Calm Calm -- 30.56 in1034.9 mb 0.00 in0.0 mm 0.00 in0.0 mm 0.00 in0.0 mm
10:14 PM 23.7°F-4.6°C 14.7°F-9.6°C 68% Calm Calm -- 30.55 in1034.5 mb 0.00 in0.0 mm 0.00 in0.0 mm 0.00 in0.0 mm
10:15 PM 23.6°F-4.7°C 14.6°F-9.7°C 68% Calm Calm -- 30.55 in1034.5 mb 0.00 in0.0 mm 0.00 in0.0 mm 0.00 in0.0 mm
10:22 PM 23.4°F-4.8°C 14.7°F-9.6°C 69% Calm Calm -- 30.56 in1034.9 mb 0.00 in0.0 mm 0.00 in0.0 mm 0.00 in0.0 mm
10:24 PM 23.3°F-4.8°C 14.6°F-9.7°C 69% Calm Calm -- 30.56 in1034.9 mb 0.00 in0.0 mm 0.00 in0.0 mm 0.00 in0.0 mm
10:25 PM 23.3°F-4.8°C 14.6°F-9.7°C 69% Calm Calm -- 30.56 in1034.9 mb 0.00 in0.0 mm 0.00 in0.0 mm 0.00 in0.0 mm
10:26 PM 23.3°F-4.8°C 14.6°F-9.7°C 69% Calm Calm -- 30.56 in1034.9 mb 0.00 in0.0 mm 0.00 in0.0 mm 0.00 in0.0 mm
10:27 PM 23.2°F-4.9°C 14.5°F-9.7°C 69% Calm Calm -- 30.56 in1034.9 mb 0.00 in0.0 mm 0.00 in0.0 mm 0.00 in0.0 mm
10:28 PM 23.2°F-4.9°C 14.5°F-9.7°C 69% Calm Calm -- 30.56 in1034.9 mb 0.00 in0.0 mm 0.00 in0.0 mm 0.00 in0.0 mm
10:29 PM 23.1°F-4.9°C 14.4°F-9.8°C 69% Calm Calm -- 30.56 in1034.9 mb 0.00 in0.0 mm 0.00 in0.0 mm 0.00 in0.0 mm
10:32 PM 23.0°F-5.0°C 14.3°F-9.8°C 69% Calm Calm -- 30.56 in1034.9 mb 0.00 in0.0 mm 0.00 in0.0 mm 0.00 in0.0 mm
10:33 PM 23.0°F-5.0°C 14.3°F-9.8°C 69% Calm Calm -- 30.56 in1034.9 mb 0.00 in0.0 mm 0.00 in0.0 mm 0.00 in0.0 mm
10:34 PM 23.0°F-5.0°C 14.3°F-9.8°C 69% Calm Calm -- 30.56 in1034.9 mb 0.00 in0.0 mm 0.00 in0.0 mm 0.00 in0.0 mm
10:35 PM 23.0°F-5.0°C 14.3°F-9.8°C 69% Calm Calm -- 30.56 in1034.9 mb 0.00 in0.0 mm 0.00 in0.0 mm 0.00 in0.0 mm
10:36 PM 22.9°F-5.1°C 14.6°F-9.7°C 70% Calm Calm -- 30.56 in1034.9 mb 0.00 in0.0 mm 0.00 in0.0 mm 0.00 in0.0 mm
10:40 PM 22.7°F-5.2°C 14.1°F-9.9°C 69% Calm Calm -- 30.56 in1034.9 mb 0.00 in0.0 mm 0.00 in0.0 mm 0.00 in0.0 mm
10:41 PM 22.7°F-5.2°C 14.4°F-9.8°C 70% Calm Calm -- 30.56 in1034.9 mb 0.00 in0.0 mm 0.00 in0.0 mm 0.00 in0.0 mm
10:42 PM 22.7°F-5.2°C 14.4°F-9.8°C 70% Calm Calm -- 30.56 in1034.9 mb 0.00 in0.0 mm 0.00 in0.0 mm 0.00 in0.0 mm
10:44 PM 22.6°F-5.2°C 14.3°F-9.8°C 70% Calm Calm -- 30.56 in1034.9 mb 0.00 in0.0 mm 0.00 in0.0 mm 0.00 in0.0 mm
10:45 PM 22.6°F-5.2°C 14.3°F-9.8°C 70% Calm Calm -- 30.56 in1034.9 mb 0.00 in0.0 mm 0.00 in0.0 mm 0.00 in0.0 mm
10:46 PM 22.6°F-5.2°C 14.3°F-9.8°C 70% Calm Calm -- 30.56 in1034.9 mb 0.00 in0.0 mm 0.00 in0.0 mm 0.00 in0.0 mm
10:51 PM 22.4°F-5.3°C 14.1°F-9.9°C 70% Calm Calm -- 30.56 in1034.9 mb 0.00 in0.0 mm 0.00 in0.0 mm 0.00 in0.0 mm
10:54 PM 22.3°F-5.4°C 14.0°F-10.0°C 70% Calm Calm -- 30.56 in1034.9 mb 0.00 in0.0 mm 0.00 in0.0 mm 0.00 in0.0 mm
10:59 PM 22.2°F-5.4°C 14.2°F-9.9°C 71% Calm Calm -- 30.56 in1034.9 mb 0.00 in0.0 mm 0.00 in0.0 mm 0.00 in0.0 mm
11:03 PM 22.0°F-5.6°C 14.0°F-10.0°C 71% Calm Calm -- 30.56 in1034.9 mb 0.00 in0.0 mm 0.00 in0.0 mm 0.00 in0.0 mm
11:04 PM 22.0°F-5.6°C 14.0°F-10.0°C 71% Calm Calm -- 30.56 in1034.9 mb 0.00 in0.0 mm 0.00 in0.0 mm 0.00 in0.0 mm
11:06 PM 22.0°F-5.6°C 14.0°F-10.0°C 71% Calm Calm -- 30.56 in1034.9 mb 0.00 in0.0 mm 0.00 in0.0 mm 0.00 in0.0 mm
11:08 PM 21.9°F-5.6°C 13.9°F-10.1°C 71% Calm Calm -- 30.56 in1034.9 mb 0.00 in0.0 mm 0.00 in0.0 mm 0.00 in0.0 mm
11:09 PM 21.8°F-5.7°C 13.8°F-10.1°C 71% Calm Calm -- 30.56 in1034.9 mb 0.00 in0.0 mm 0.00 in0.0 mm 0.00 in0.0 mm
11:12 PM 21.7°F-5.7°C 14.1°F-9.9°C 72% Calm Calm -- 30.56 in1034.9 mb 0.00 in0.0 mm 0.00 in0.0 mm 0.00 in0.0 mm
11:13 PM 21.8°F-5.7°C 14.2°F-9.9°C 72% Calm Calm -- 30.56 in1034.9 mb 0.00 in0.0 mm 0.00 in0.0 mm 0.00 in0.0 mm
11:14 PM 21.7°F-5.7°C 14.1°F-9.9°C 72% Calm Calm -- 30.56 in1034.9 mb 0.00 in0.0 mm 0.00 in0.0 mm 0.00 in0.0 mm
11:16 PM 21.7°F-5.7°C 14.1°F-9.9°C 72% Calm Calm -- 30.56 in1034.9 mb 0.00 in0.0 mm 0.00 in0.0 mm 0.00 in0.0 mm
11:17 PM 21.7°F-5.7°C 14.1°F-9.9°C 72% Calm Calm -- 30.56 in1034.9 mb 0.00 in0.0 mm 0.00 in0.0 mm 0.00 in0.0 mm
11:18 PM 21.6°F-5.8°C 14.0°F-10.0°C 72% Calm Calm -- 30.56 in1034.9 mb 0.00 in0.0 mm 0.00 in0.0 mm 0.00 in0.0 mm
11:19 PM 21.6°F-5.8°C 14.0°F-10.0°C 72% Calm Calm -- 30.56 in1034.9 mb 0.00 in0.0 mm 0.00 in0.0 mm 0.00 in0.0 mm
11:21 PM 21.6°F-5.8°C 14.0°F-10.0°C 72% Calm Calm -- 30.56 in1034.9 mb 0.00 in0.0 mm 0.00 in0.0 mm 0.00 in0.0 mm
11:23 PM 21.6°F-5.8°C 14.0°F-10.0°C 72% Calm Calm -- 30.56 in1034.9 mb 0.00 in0.0 mm 0.00 in0.0 mm 0.00 in0.0 mm
11:24 PM 21.6°F-5.8°C 14.0°F-10.0°C 72% Calm Calm -- 30.56 in1034.9 mb 0.00 in0.0 mm 0.00 in0.0 mm 0.00 in0.0 mm
11:26 PM 21.5°F-5.8°C 13.9°F-10.1°C 72% Calm Calm -- 30.56 in1034.9 mb 0.00 in0.0 mm 0.00 in0.0 mm 0.00 in0.0 mm
11:27 PM 21.5°F-5.8°C 13.9°F-10.1°C 72% Calm Calm -- 30.56 in1034.9 mb 0.00 in0.0 mm 0.00 in0.0 mm 0.00 in0.0 mm
11:28 PM 21.5°F-5.8°C 13.9°F-10.1°C 72% Calm Calm -- 30.56 in1034.9 mb 0.00 in0.0 mm 0.00 in0.0 mm 0.00 in0.0 mm
11:29 PM 21.4°F-5.9°C 13.8°F-10.1°C 72% Calm Calm -- 30.56 in1034.9 mb 0.00 in0.0 mm 0.00 in0.0 mm 0.00 in0.0 mm
11:30 PM 21.4°F-5.9°C 13.8°F-10.1°C 72% Calm Calm -- 30.56 in1034.9 mb 0.00 in0.0 mm 0.00 in0.0 mm 0.00 in0.0 mm
11:31 PM 21.4°F-5.9°C 13.8°F-10.1°C 72% Calm Calm -- 30.56 in1034.9 mb 0.00 in0.0 mm 0.00 in0.0 mm 0.00 in0.0 mm
11:36 PM 21.3°F-5.9°C 14.0°F-10.0°C 73% Calm Calm -- 30.56 in1034.9 mb 0.00 in0.0 mm 0.00 in0.0 mm 0.00 in0.0 mm
11:37 PM 21.3°F-5.9°C 14.0°F-10.0°C 73% Calm Calm -- 30.57 in1035.2 mb 0.00 in0.0 mm 0.00 in0.0 mm 0.00 in0.0 mm
11:40 PM 21.3°F-5.9°C 14.0°F-10.0°C 73% Calm Calm -- 30.57 in1035.2 mb 0.00 in0.0 mm 0.00 in0.0 mm 0.00 in0.0 mm
11:41 PM 21.3°F-5.9°C 14.0°F-10.0°C 73% Calm Calm -- 30.57 in1035.2 mb 0.00 in0.0 mm 0.00 in0.0 mm 0.00 in0.0 mm
11:42 PM 21.3°F-5.9°C 14.0°F-10.0°C 73% Calm Calm -- 30.57 in1035.2 mb 0.00 in0.0 mm 0.00 in0.0 mm 0.00 in0.0 mm
11:43 PM 21.3°F-5.9°C 14.0°F-10.0°C 73% Calm Calm -- 30.57 in1035.2 mb 0.00 in0.0 mm 0.00 in0.0 mm 0.00 in0.0 mm
11:44 PM 21.4°F-5.9°C 14.1°F-9.9°C 73% Calm Calm -- 30.57 in1035.2 mb 0.00 in0.0 mm 0.00 in0.0 mm 0.00 in0.0 mm
11:46 PM 21.3°F-5.9°C 14.0°F-10.0°C 73% Calm Calm -- 30.57 in1035.2 mb 0.00 in0.0 mm 0.00 in0.0 mm 0.00 in0.0 mm
11:49 PM 21.4°F-5.9°C 14.1°F-9.9°C 73% Calm Calm -- 30.57 in1035.2 mb 0.00 in0.0 mm 0.00 in0.0 mm 0.00 in0.0 mm
11:51 PM 21.3°F-5.9°C 14.3°F-9.8°C 74% Calm Calm -- 30.57 in1035.2 mb 0.00 in0.0 mm 0.00 in0.0 mm 0.00 in0.0 mm
11:52 PM 21.3°F-5.9°C 14.3°F-9.8°C 74% Calm Calm -- 30.57 in1035.2 mb 0.00 in0.0 mm 0.00 in0.0 mm 0.00 in0.0 mm
11:54 PM 21.4°F-5.9°C 14.4°F-9.8°C 74% Calm Calm -- 30.57 in1035.2 mb 0.00 in0.0 mm 0.00 in0.0 mm 0.00 in0.0 mm
11:56 PM 21.4°F-5.9°C 14.4°F-9.8°C 74% Calm Calm -- 30.57 in1035.2 mb 0.00 in0.0 mm 0.00 in0.0 mm 0.00 in0.0 mm
11:58 PM 21.4°F-5.9°C 14.4°F-9.8°C 74% Calm Calm -- 30.57 in1035.2 mb 0.00 in0.0 mm 0.00 in0.0 mm 0.00 in0.0 mm
11:59 PM 21.5°F-5.8°C 14.5°F-9.7°C 74% Calm Calm -- 30.57 in1035.2 mb 0.00 in0.0 mm 0.00 in0.0 mm 0.00 in0.0 mm